<?xml version="1.0" encoding="UTF-8" standalone="no" ?>
<gpx xmlns="http://www.topografix.com/GPX/1/1" xmlns:xsi="http://www.w3.org/2001/XMLSchema-instance" xsi:schemaLocation="http://www.topografix.com/GPX/1/1 http://www.topografix.com/GPX/1/1/gpx.xsd" version="1.1" creator="VisuGPX - https://www.visugpx.com">
  <metadata>
    <name>nord vercors</name>
  </metadata>
  <trk>
    <name><![CDATA[Le Moucherotte par Lans-en-Vercors - 6861 - UtagawaVTT.com]]></name>
    <trkseg>
      <trkpt lat="45.17072" lon="5.6305">
        <ele>1163.4</ele>
        <time>2012-08-14T05:43:21Z</time>
      </trkpt>
      <trkpt lat="45.17076" lon="5.63039">
        <ele>1163.3</ele>
        <time>2012-08-14T05:43:27Z</time>
      </trkpt>
      <trkpt lat="45.17073" lon="5.63017">
        <ele>1163.4</ele>
        <time>2012-08-14T05:43:36Z</time>
      </trkpt>
      <trkpt lat="45.17071" lon="5.63003">
        <ele>1163.5</ele>
        <time>2012-08-14T05:43:42Z</time>
      </trkpt>
      <trkpt lat="45.17066" lon="5.62987">
        <ele>1163.9</ele>
        <time>2012-08-14T05:44:02Z</time>
      </trkpt>
      <trkpt lat="45.17059" lon="5.62975">
        <ele>1164.5</ele>
        <time>2012-08-14T05:44:08Z</time>
      </trkpt>
      <trkpt lat="45.17065" lon="5.62943">
        <ele>1165</ele>
        <time>2012-08-14T05:44:18Z</time>
      </trkpt>
      <trkpt lat="45.17066" lon="5.62929">
        <ele>1165.3</ele>
        <time>2012-08-14T05:44:22Z</time>
      </trkpt>
      <trkpt lat="45.17062" lon="5.62862">
        <ele>1168.1</ele>
        <time>2012-08-14T05:44:41Z</time>
      </trkpt>
      <trkpt lat="45.17058" lon="5.62794">
        <ele>1169.9</ele>
        <time>2012-08-14T05:45:01Z</time>
      </trkpt>
      <trkpt lat="45.17043" lon="5.6274">
        <ele>1170.3</ele>
        <time>2012-08-14T05:45:18Z</time>
      </trkpt>
      <trkpt lat="45.17038" lon="5.62732">
        <ele>1169.7</ele>
        <time>2012-08-14T05:45:29Z</time>
      </trkpt>
      <trkpt lat="45.17018" lon="5.62717">
        <ele>1169.1</ele>
        <time>2012-08-14T05:45:54Z</time>
      </trkpt>
      <trkpt lat="45.17006" lon="5.62709">
        <ele>1168.7</ele>
        <time>2012-08-14T05:46:04Z</time>
      </trkpt>
      <trkpt lat="45.16984" lon="5.62695">
        <ele>1170.7</ele>
        <time>2012-08-14T05:46:25Z</time>
      </trkpt>
      <trkpt lat="45.16939" lon="5.62672">
        <ele>1178.8</ele>
        <time>2012-08-14T05:46:37Z</time>
      </trkpt>
      <trkpt lat="45.16919" lon="5.62619">
        <ele>1181</ele>
        <time>2012-08-14T05:46:46Z</time>
      </trkpt>
      <trkpt lat="45.16935" lon="5.62482">
        <ele>1167.5</ele>
        <time>2012-08-14T05:47:54Z</time>
      </trkpt>
      <trkpt lat="45.16909" lon="5.6246">
        <ele>1167.8</ele>
        <time>2012-08-14T05:47:57Z</time>
      </trkpt>
      <trkpt lat="45.16893" lon="5.62447">
        <ele>1166.2</ele>
        <time>2012-08-14T05:48:02Z</time>
      </trkpt>
      <trkpt lat="45.16859" lon="5.62438">
        <ele>1163.9</ele>
        <time>2012-08-14T05:48:10Z</time>
      </trkpt>
      <trkpt lat="45.1683" lon="5.62443">
        <ele>1164.3</ele>
        <time>2012-08-14T05:48:15Z</time>
      </trkpt>
      <trkpt lat="45.16808" lon="5.6245">
        <ele>1165.6</ele>
        <time>2012-08-14T05:48:18Z</time>
      </trkpt>
      <trkpt lat="45.16774" lon="5.62456">
        <ele>1166.7</ele>
        <time>2012-08-14T05:48:22Z</time>
      </trkpt>
      <trkpt lat="45.16734" lon="5.62437">
        <ele>1162.8</ele>
        <time>2012-08-14T05:48:27Z</time>
      </trkpt>
      <trkpt lat="45.16691" lon="5.62408">
        <ele>1161.6</ele>
        <time>2012-08-14T05:48:34Z</time>
      </trkpt>
      <trkpt lat="45.16652" lon="5.62391">
        <ele>1160.5</ele>
        <time>2012-08-14T05:49:15Z</time>
      </trkpt>
      <trkpt lat="45.16658" lon="5.62393">
        <ele>1161.4</ele>
        <time>2012-08-14T05:49:19Z</time>
      </trkpt>
      <trkpt lat="45.16667" lon="5.62418">
        <ele>1165.2</ele>
        <time>2012-08-14T05:49:33Z</time>
      </trkpt>
      <trkpt lat="45.16669" lon="5.62424">
        <ele>1166.1</ele>
        <time>2012-08-14T05:49:35Z</time>
      </trkpt>
      <trkpt lat="45.1667" lon="5.62426">
        <ele>1166.4</ele>
        <time>2012-08-14T05:49:52Z</time>
      </trkpt>
      <trkpt lat="45.16669" lon="5.62423">
        <ele>1165.9</ele>
        <time>2012-08-14T05:49:56Z</time>
      </trkpt>
      <trkpt lat="45.16621" lon="5.62432">
        <ele>1160.9</ele>
        <time>2012-08-14T05:50:11Z</time>
      </trkpt>
      <trkpt lat="45.1659" lon="5.62471">
        <ele>1162</ele>
        <time>2012-08-14T05:50:22Z</time>
      </trkpt>
      <trkpt lat="45.16588" lon="5.62554">
        <ele>1177.3</ele>
        <time>2012-08-14T05:50:35Z</time>
      </trkpt>
      <trkpt lat="45.16538" lon="5.62635">
        <ele>1176.2</ele>
        <time>2012-08-14T05:50:52Z</time>
      </trkpt>
      <trkpt lat="45.16503" lon="5.62678">
        <ele>1169.9</ele>
        <time>2012-08-14T05:51:03Z</time>
      </trkpt>
      <trkpt lat="45.16473" lon="5.62696">
        <ele>1169.7</ele>
        <time>2012-08-14T05:51:10Z</time>
      </trkpt>
      <trkpt lat="45.16448" lon="5.62693">
        <ele>1167.3</ele>
        <time>2012-08-14T05:51:16Z</time>
      </trkpt>
      <trkpt lat="45.16446" lon="5.62673">
        <ele>1164.6</ele>
        <time>2012-08-14T05:51:20Z</time>
      </trkpt>
      <trkpt lat="45.16432" lon="5.6268">
        <ele>1164.6</ele>
        <time>2012-08-14T05:51:24Z</time>
      </trkpt>
      <trkpt lat="45.16394" lon="5.6264">
        <ele>1162.7</ele>
        <time>2012-08-14T05:51:38Z</time>
      </trkpt>
      <trkpt lat="45.16349" lon="5.62587">
        <ele>1162.9</ele>
        <time>2012-08-14T05:51:54Z</time>
      </trkpt>
      <trkpt lat="45.16331" lon="5.62575">
        <ele>1162.7</ele>
        <time>2012-08-14T05:51:59Z</time>
      </trkpt>
      <trkpt lat="45.16308" lon="5.62564">
        <ele>1161.9</ele>
        <time>2012-08-14T05:52:05Z</time>
      </trkpt>
      <trkpt lat="45.16313" lon="5.62532">
        <ele>1157.4</ele>
        <time>2012-08-14T05:52:10Z</time>
      </trkpt>
      <trkpt lat="45.16331" lon="5.62494">
        <ele>1150.4</ele>
        <time>2012-08-14T05:52:15Z</time>
      </trkpt>
      <trkpt lat="45.16326" lon="5.62483">
        <ele>1149.2</ele>
        <time>2012-08-14T05:52:18Z</time>
      </trkpt>
      <trkpt lat="45.16323" lon="5.62476">
        <ele>1148.7</ele>
        <time>2012-08-14T05:52:19Z</time>
      </trkpt>
      <trkpt lat="45.16308" lon="5.6247">
        <ele>1149.7</ele>
        <time>2012-08-14T05:52:22Z</time>
      </trkpt>
      <trkpt lat="45.16271" lon="5.62433">
        <ele>1150.9</ele>
        <time>2012-08-14T05:52:30Z</time>
      </trkpt>
      <trkpt lat="45.1623" lon="5.6239">
        <ele>1157.7</ele>
        <time>2012-08-14T05:52:42Z</time>
      </trkpt>
      <trkpt lat="45.16216" lon="5.62339">
        <ele>1154.9</ele>
        <time>2012-08-14T05:52:51Z</time>
      </trkpt>
      <trkpt lat="45.16209" lon="5.623">
        <ele>1154.9</ele>
        <time>2012-08-14T05:52:58Z</time>
      </trkpt>
      <trkpt lat="45.16207" lon="5.62233">
        <ele>1152</ele>
        <time>2012-08-14T05:53:12Z</time>
      </trkpt>
      <trkpt lat="45.16198" lon="5.62223">
        <ele>1153.1</ele>
        <time>2012-08-14T05:53:15Z</time>
      </trkpt>
      <trkpt lat="45.1619" lon="5.62213">
        <ele>1154</ele>
        <time>2012-08-14T05:53:17Z</time>
      </trkpt>
      <trkpt lat="45.16166" lon="5.62189">
        <ele>1157.2</ele>
        <time>2012-08-14T05:53:22Z</time>
      </trkpt>
      <trkpt lat="45.16161" lon="5.62184">
        <ele>1158.1</ele>
        <time>2012-08-14T05:53:23Z</time>
      </trkpt>
      <trkpt lat="45.16153" lon="5.62173">
        <ele>1159</ele>
        <time>2012-08-14T05:53:25Z</time>
      </trkpt>
      <trkpt lat="45.16147" lon="5.62161">
        <ele>1159.4</ele>
        <time>2012-08-14T05:53:27Z</time>
      </trkpt>
      <trkpt lat="45.1614" lon="5.6209">
        <ele>1155.9</ele>
        <time>2012-08-14T05:53:39Z</time>
      </trkpt>
      <trkpt lat="45.16131" lon="5.62023">
        <ele>1154.2</ele>
        <time>2012-08-14T05:53:53Z</time>
      </trkpt>
      <trkpt lat="45.16127" lon="5.62012">
        <ele>1154</ele>
        <time>2012-08-14T05:53:55Z</time>
      </trkpt>
      <trkpt lat="45.1612" lon="5.61994">
        <ele>1154</ele>
        <time>2012-08-14T05:53:58Z</time>
      </trkpt>
      <trkpt lat="45.16111" lon="5.61979">
        <ele>1154.9</ele>
        <time>2012-08-14T05:54:01Z</time>
      </trkpt>
      <trkpt lat="45.16102" lon="5.61956">
        <ele>1155.7</ele>
        <time>2012-08-14T05:54:05Z</time>
      </trkpt>
      <trkpt lat="45.16091" lon="5.61879">
        <ele>1158.1</ele>
        <time>2012-08-14T05:54:19Z</time>
      </trkpt>
      <trkpt lat="45.16099" lon="5.61843">
        <ele>1159.5</ele>
        <time>2012-08-14T05:54:29Z</time>
      </trkpt>
      <trkpt lat="45.16095" lon="5.61807">
        <ele>1157.4</ele>
        <time>2012-08-14T05:54:42Z</time>
      </trkpt>
      <trkpt lat="45.16074" lon="5.61787">
        <ele>1154.9</ele>
        <time>2012-08-14T05:54:51Z</time>
      </trkpt>
      <trkpt lat="45.16055" lon="5.61777">
        <ele>1153.4</ele>
        <time>2012-08-14T05:54:55Z</time>
      </trkpt>
      <trkpt lat="45.16034" lon="5.61771">
        <ele>1152.1</ele>
        <time>2012-08-14T05:54:58Z</time>
      </trkpt>
      <trkpt lat="45.16027" lon="5.6177">
        <ele>1151.8</ele>
        <time>2012-08-14T05:54:59Z</time>
      </trkpt>
      <trkpt lat="45.1601" lon="5.6177">
        <ele>1151.4</ele>
        <time>2012-08-14T05:55:01Z</time>
      </trkpt>
      <trkpt lat="45.15954" lon="5.61786">
        <ele>1149.5</ele>
        <time>2012-08-14T05:55:08Z</time>
      </trkpt>
      <trkpt lat="45.15925" lon="5.61795">
        <ele>1148.8</ele>
        <time>2012-08-14T05:55:11Z</time>
      </trkpt>
      <trkpt lat="45.15915" lon="5.61796">
        <ele>1148.2</ele>
        <time>2012-08-14T05:55:12Z</time>
      </trkpt>
      <trkpt lat="45.15887" lon="5.61803">
        <ele>1143.5</ele>
        <time>2012-08-14T05:55:15Z</time>
      </trkpt>
      <trkpt lat="45.15861" lon="5.61825">
        <ele>1141.5</ele>
        <time>2012-08-14T05:55:19Z</time>
      </trkpt>
      <trkpt lat="45.15839" lon="5.6187">
        <ele>1144.8</ele>
        <time>2012-08-14T05:55:24Z</time>
      </trkpt>
      <trkpt lat="45.15805" lon="5.61945">
        <ele>1153.9</ele>
        <time>2012-08-14T05:55:32Z</time>
      </trkpt>
      <trkpt lat="45.15786" lon="5.61948">
        <ele>1151.7</ele>
        <time>2012-08-14T05:55:36Z</time>
      </trkpt>
      <trkpt lat="45.15745" lon="5.61931">
        <ele>1141.3</ele>
        <time>2012-08-14T05:55:44Z</time>
      </trkpt>
      <trkpt lat="45.1574" lon="5.61932">
        <ele>1141.4</ele>
        <time>2012-08-14T05:55:45Z</time>
      </trkpt>
      <trkpt lat="45.15718" lon="5.61936">
        <ele>1142.1</ele>
        <time>2012-08-14T05:55:50Z</time>
      </trkpt>
      <trkpt lat="45.15643" lon="5.61919">
        <ele>1136</ele>
        <time>2012-08-14T05:56:05Z</time>
      </trkpt>
      <trkpt lat="45.15615" lon="5.61916">
        <ele>1134.7</ele>
        <time>2012-08-14T05:56:10Z</time>
      </trkpt>
      <trkpt lat="45.15575" lon="5.61905">
        <ele>1132.3</ele>
        <time>2012-08-14T05:56:15Z</time>
      </trkpt>
      <trkpt lat="45.15539" lon="5.61915">
        <ele>1128.5</ele>
        <time>2012-08-14T05:56:19Z</time>
      </trkpt>
      <trkpt lat="45.15496" lon="5.61939">
        <ele>1124.9</ele>
        <time>2012-08-14T05:56:25Z</time>
      </trkpt>
      <trkpt lat="45.15461" lon="5.61944">
        <ele>1121.7</ele>
        <time>2012-08-14T05:56:31Z</time>
      </trkpt>
      <trkpt lat="45.1544" lon="5.61935">
        <ele>1118.7</ele>
        <time>2012-08-14T05:56:34Z</time>
      </trkpt>
      <trkpt lat="45.15411" lon="5.61923">
        <ele>1114.3</ele>
        <time>2012-08-14T05:56:38Z</time>
      </trkpt>
      <trkpt lat="45.15385" lon="5.61895">
        <ele>1108.9</ele>
        <time>2012-08-14T05:56:43Z</time>
      </trkpt>
      <trkpt lat="45.15364" lon="5.61881">
        <ele>1105.7</ele>
        <time>2012-08-14T05:56:46Z</time>
      </trkpt>
      <trkpt lat="45.15354" lon="5.61877">
        <ele>1104.7</ele>
        <time>2012-08-14T05:56:47Z</time>
      </trkpt>
      <trkpt lat="45.15329" lon="5.61866">
        <ele>1101.7</ele>
        <time>2012-08-14T05:56:50Z</time>
      </trkpt>
      <trkpt lat="45.15293" lon="5.61867">
        <ele>1099.4</ele>
        <time>2012-08-14T05:56:54Z</time>
      </trkpt>
      <trkpt lat="45.15272" lon="5.61871">
        <ele>1098.4</ele>
        <time>2012-08-14T05:56:56Z</time>
      </trkpt>
      <trkpt lat="45.15239" lon="5.61879">
        <ele>1096.6</ele>
        <time>2012-08-14T05:56:59Z</time>
      </trkpt>
      <trkpt lat="45.15195" lon="5.61892">
        <ele>1091.7</ele>
        <time>2012-08-14T05:57:03Z</time>
      </trkpt>
      <trkpt lat="45.15161" lon="5.61904">
        <ele>1087.4</ele>
        <time>2012-08-14T05:57:06Z</time>
      </trkpt>
      <trkpt lat="45.15126" lon="5.61918">
        <ele>1084</ele>
        <time>2012-08-14T05:57:09Z</time>
      </trkpt>
      <trkpt lat="45.15114" lon="5.61924">
        <ele>1083.4</ele>
        <time>2012-08-14T05:57:10Z</time>
      </trkpt>
      <trkpt lat="45.15081" lon="5.61938">
        <ele>1081.7</ele>
        <time>2012-08-14T05:57:15Z</time>
      </trkpt>
      <trkpt lat="45.15055" lon="5.61962">
        <ele>1083.3</ele>
        <time>2012-08-14T05:57:17Z</time>
      </trkpt>
      <trkpt lat="45.1501" lon="5.61976">
        <ele>1082.2</ele>
        <time>2012-08-14T05:57:22Z</time>
      </trkpt>
      <trkpt lat="45.14971" lon="5.6197">
        <ele>1075.6</ele>
        <time>2012-08-14T05:57:26Z</time>
      </trkpt>
      <trkpt lat="45.14943" lon="5.61968">
        <ele>1071.3</ele>
        <time>2012-08-14T05:57:29Z</time>
      </trkpt>
      <trkpt lat="45.14931" lon="5.61968">
        <ele>1069.8</ele>
        <time>2012-08-14T05:57:30Z</time>
      </trkpt>
      <trkpt lat="45.14903" lon="5.6197">
        <ele>1067</ele>
        <time>2012-08-14T05:57:33Z</time>
      </trkpt>
      <trkpt lat="45.14896" lon="5.61971">
        <ele>1066.3</ele>
        <time>2012-08-14T05:57:34Z</time>
      </trkpt>
      <trkpt lat="45.14826" lon="5.6198">
        <ele>1061.4</ele>
        <time>2012-08-14T05:57:44Z</time>
      </trkpt>
      <trkpt lat="45.14819" lon="5.61982">
        <ele>1061.4</ele>
        <time>2012-08-14T05:57:45Z</time>
      </trkpt>
      <trkpt lat="45.14787" lon="5.61991">
        <ele>1061.9</ele>
        <time>2012-08-14T05:57:50Z</time>
      </trkpt>
      <trkpt lat="45.1478" lon="5.61994">
        <ele>1062.3</ele>
        <time>2012-08-14T05:57:51Z</time>
      </trkpt>
      <trkpt lat="45.14765" lon="5.62">
        <ele>1063.1</ele>
        <time>2012-08-14T05:57:53Z</time>
      </trkpt>
      <trkpt lat="45.1475" lon="5.62002">
        <ele>1062.6</ele>
        <time>2012-08-14T05:57:55Z</time>
      </trkpt>
      <trkpt lat="45.1472" lon="5.61984">
        <ele>1059.7</ele>
        <time>2012-08-14T05:57:59Z</time>
      </trkpt>
      <trkpt lat="45.14713" lon="5.61978">
        <ele>1058.6</ele>
        <time>2012-08-14T05:58:00Z</time>
      </trkpt>
      <trkpt lat="45.14679" lon="5.61957">
        <ele>1055.3</ele>
        <time>2012-08-14T05:58:05Z</time>
      </trkpt>
      <trkpt lat="45.14656" lon="5.61953">
        <ele>1056.1</ele>
        <time>2012-08-14T05:58:08Z</time>
      </trkpt>
      <trkpt lat="45.14638" lon="5.61948">
        <ele>1056.5</ele>
        <time>2012-08-14T05:58:11Z</time>
      </trkpt>
      <trkpt lat="45.14607" lon="5.61938">
        <ele>1056.6</ele>
        <time>2012-08-14T05:58:14Z</time>
      </trkpt>
      <trkpt lat="45.14588" lon="5.61932">
        <ele>1056.8</ele>
        <time>2012-08-14T05:58:16Z</time>
      </trkpt>
      <trkpt lat="45.14572" lon="5.61924">
        <ele>1057.6</ele>
        <time>2012-08-14T05:58:18Z</time>
      </trkpt>
      <trkpt lat="45.14543" lon="5.61874">
        <ele>1056.6</ele>
        <time>2012-08-14T05:58:23Z</time>
      </trkpt>
      <trkpt lat="45.14531" lon="5.61821">
        <ele>1054.6</ele>
        <time>2012-08-14T05:58:28Z</time>
      </trkpt>
      <trkpt lat="45.14531" lon="5.61764">
        <ele>1053.3</ele>
        <time>2012-08-14T05:58:33Z</time>
      </trkpt>
      <trkpt lat="45.14531" lon="5.61756">
        <ele>1053.1</ele>
        <time>2012-08-14T05:58:34Z</time>
      </trkpt>
      <trkpt lat="45.14533" lon="5.61723">
        <ele>1050.9</ele>
        <time>2012-08-14T05:58:38Z</time>
      </trkpt>
      <trkpt lat="45.14531" lon="5.61681">
        <ele>1049.8</ele>
        <time>2012-08-14T05:58:43Z</time>
      </trkpt>
      <trkpt lat="45.14523" lon="5.61667">
        <ele>1052.1</ele>
        <time>2012-08-14T05:59:48Z</time>
      </trkpt>
      <trkpt lat="45.1452" lon="5.61657">
        <ele>1051.6</ele>
        <time>2012-08-14T05:59:52Z</time>
      </trkpt>
      <trkpt lat="45.14518" lon="5.61647">
        <ele>1051</ele>
        <time>2012-08-14T05:59:54Z</time>
      </trkpt>
      <trkpt lat="45.14513" lon="5.61606">
        <ele>1046.4</ele>
        <time>2012-08-14T06:00:00Z</time>
      </trkpt>
      <trkpt lat="45.14492" lon="5.61548">
        <ele>1044.1</ele>
        <time>2012-08-14T06:00:12Z</time>
      </trkpt>
      <trkpt lat="45.14477" lon="5.6151">
        <ele>1045.7</ele>
        <time>2012-08-14T06:00:21Z</time>
      </trkpt>
      <trkpt lat="45.14468" lon="5.61487">
        <ele>1050.4</ele>
        <time>2012-08-14T06:00:27Z</time>
      </trkpt>
      <trkpt lat="45.14461" lon="5.61466">
        <ele>1056.6</ele>
        <time>2012-08-14T06:00:33Z</time>
      </trkpt>
      <trkpt lat="45.14458" lon="5.61442">
        <ele>1061.8</ele>
        <time>2012-08-14T06:00:41Z</time>
      </trkpt>
      <trkpt lat="45.14497" lon="5.61378">
        <ele>1059.2</ele>
        <time>2012-08-14T06:00:54Z</time>
      </trkpt>
      <trkpt lat="45.14508" lon="5.61331">
        <ele>1065.5</ele>
        <time>2012-08-14T06:01:10Z</time>
      </trkpt>
      <trkpt lat="45.14527" lon="5.61297">
        <ele>1068.6</ele>
        <time>2012-08-14T06:01:23Z</time>
      </trkpt>
      <trkpt lat="45.14553" lon="5.61259">
        <ele>1069.9</ele>
        <time>2012-08-14T06:01:37Z</time>
      </trkpt>
      <trkpt lat="45.14568" lon="5.61228">
        <ele>1072.2</ele>
        <time>2012-08-14T06:01:50Z</time>
      </trkpt>
      <trkpt lat="45.14577" lon="5.61191">
        <ele>1077.1</ele>
        <time>2012-08-14T06:02:04Z</time>
      </trkpt>
      <trkpt lat="45.14579" lon="5.61181">
        <ele>1078.5</ele>
        <time>2012-08-14T06:02:08Z</time>
      </trkpt>
      <trkpt lat="45.14587" lon="5.6115">
        <ele>1080.7</ele>
        <time>2012-08-14T06:02:23Z</time>
      </trkpt>
      <trkpt lat="45.1459" lon="5.61137">
        <ele>1081.2</ele>
        <time>2012-08-14T06:02:30Z</time>
      </trkpt>
      <trkpt lat="45.14605" lon="5.61108">
        <ele>1080.3</ele>
        <time>2012-08-14T06:02:46Z</time>
      </trkpt>
      <trkpt lat="45.14612" lon="5.61095">
        <ele>1079.4</ele>
        <time>2012-08-14T06:02:55Z</time>
      </trkpt>
      <trkpt lat="45.14624" lon="5.61083">
        <ele>1077.1</ele>
        <time>2012-08-14T06:03:05Z</time>
      </trkpt>
      <trkpt lat="45.14625" lon="5.6107">
        <ele>1075.7</ele>
        <time>2012-08-14T06:03:16Z</time>
      </trkpt>
      <trkpt lat="45.1459" lon="5.6105">
        <ele>1081.7</ele>
        <time>2012-08-14T06:03:37Z</time>
      </trkpt>
      <trkpt lat="45.14553" lon="5.61048">
        <ele>1088.3</ele>
        <time>2012-08-14T06:03:51Z</time>
      </trkpt>
      <trkpt lat="45.14522" lon="5.61047">
        <ele>1093.5</ele>
        <time>2012-08-14T06:04:02Z</time>
      </trkpt>
      <trkpt lat="45.14497" lon="5.61037">
        <ele>1096.4</ele>
        <time>2012-08-14T06:04:13Z</time>
      </trkpt>
      <trkpt lat="45.14461" lon="5.61021">
        <ele>1101.2</ele>
        <time>2012-08-14T06:04:28Z</time>
      </trkpt>
      <trkpt lat="45.14449" lon="5.61016">
        <ele>1102.6</ele>
        <time>2012-08-14T06:04:38Z</time>
      </trkpt>
      <trkpt lat="45.14446" lon="5.61018">
        <ele>1103.5</ele>
        <time>2012-08-14T06:04:45Z</time>
      </trkpt>
      <trkpt lat="45.1443" lon="5.6102">
        <ele>1107.1</ele>
        <time>2012-08-14T06:05:03Z</time>
      </trkpt>
      <trkpt lat="45.14411" lon="5.61017">
        <ele>1110.9</ele>
        <time>2012-08-14T06:05:14Z</time>
      </trkpt>
      <trkpt lat="45.14406" lon="5.61014">
        <ele>1111.6</ele>
        <time>2012-08-14T06:05:19Z</time>
      </trkpt>
      <trkpt lat="45.14407" lon="5.61">
        <ele>1108.8</ele>
        <time>2012-08-14T06:05:23Z</time>
      </trkpt>
      <trkpt lat="45.14417" lon="5.60953">
        <ele>1112.8</ele>
        <time>2012-08-14T06:05:40Z</time>
      </trkpt>
      <trkpt lat="45.14423" lon="5.60931">
        <ele>1114.8</ele>
        <time>2012-08-14T06:05:52Z</time>
      </trkpt>
      <trkpt lat="45.14429" lon="5.60923">
        <ele>1114.6</ele>
        <time>2012-08-14T06:05:59Z</time>
      </trkpt>
      <trkpt lat="45.14434" lon="5.6092">
        <ele>1114.3</ele>
        <time>2012-08-14T06:06:02Z</time>
      </trkpt>
      <trkpt lat="45.1445" lon="5.60898">
        <ele>1114.6</ele>
        <time>2012-08-14T06:06:15Z</time>
      </trkpt>
      <trkpt lat="45.14474" lon="5.6087">
        <ele>1113.7</ele>
        <time>2012-08-14T06:06:30Z</time>
      </trkpt>
      <trkpt lat="45.14498" lon="5.6085">
        <ele>1111.3</ele>
        <time>2012-08-14T06:06:44Z</time>
      </trkpt>
      <trkpt lat="45.14514" lon="5.6083">
        <ele>1110.9</ele>
        <time>2012-08-14T06:06:56Z</time>
      </trkpt>
      <trkpt lat="45.14523" lon="5.60807">
        <ele>1110</ele>
        <time>2012-08-14T06:07:10Z</time>
      </trkpt>
      <trkpt lat="45.14528" lon="5.60799">
        <ele>1109.8</ele>
        <time>2012-08-14T06:07:25Z</time>
      </trkpt>
      <trkpt lat="45.14546" lon="5.60777">
        <ele>1110.9</ele>
        <time>2012-08-14T06:07:42Z</time>
      </trkpt>
      <trkpt lat="45.14546" lon="5.60757">
        <ele>1112.4</ele>
        <time>2012-08-14T06:07:52Z</time>
      </trkpt>
      <trkpt lat="45.14532" lon="5.6075">
        <ele>1111.5</ele>
        <time>2012-08-14T06:07:59Z</time>
      </trkpt>
      <trkpt lat="45.14517" lon="5.60741">
        <ele>1108.8</ele>
        <time>2012-08-14T06:08:03Z</time>
      </trkpt>
      <trkpt lat="45.14505" lon="5.60737">
        <ele>1107</ele>
        <time>2012-08-14T06:08:05Z</time>
      </trkpt>
      <trkpt lat="45.1449" lon="5.60729">
        <ele>1106.7</ele>
        <time>2012-08-14T06:08:07Z</time>
      </trkpt>
      <trkpt lat="45.14481" lon="5.60724">
        <ele>1107.2</ele>
        <time>2012-08-14T06:08:08Z</time>
      </trkpt>
      <trkpt lat="45.14472" lon="5.60717">
        <ele>1107.4</ele>
        <time>2012-08-14T06:08:09Z</time>
      </trkpt>
      <trkpt lat="45.14451" lon="5.60703">
        <ele>1107.5</ele>
        <time>2012-08-14T06:08:11Z</time>
      </trkpt>
      <trkpt lat="45.14428" lon="5.60685">
        <ele>1106.5</ele>
        <time>2012-08-14T06:08:13Z</time>
      </trkpt>
      <trkpt lat="45.14408" lon="5.60674">
        <ele>1105.1</ele>
        <time>2012-08-14T06:08:15Z</time>
      </trkpt>
      <trkpt lat="45.14375" lon="5.60667">
        <ele>1101.5</ele>
        <time>2012-08-14T06:08:19Z</time>
      </trkpt>
      <trkpt lat="45.14369" lon="5.60666">
        <ele>1100.9</ele>
        <time>2012-08-14T06:08:20Z</time>
      </trkpt>
      <trkpt lat="45.14353" lon="5.60667">
        <ele>1100.2</ele>
        <time>2012-08-14T06:08:22Z</time>
      </trkpt>
      <trkpt lat="45.14322" lon="5.60674">
        <ele>1100</ele>
        <time>2012-08-14T06:08:27Z</time>
      </trkpt>
      <trkpt lat="45.14314" lon="5.60676">
        <ele>1099.9</ele>
        <time>2012-08-14T06:08:29Z</time>
      </trkpt>
      <trkpt lat="45.14294" lon="5.60682">
        <ele>1099.8</ele>
        <time>2012-08-14T06:08:37Z</time>
      </trkpt>
      <trkpt lat="45.1425" lon="5.60701">
        <ele>1102.1</ele>
        <time>2012-08-14T06:08:45Z</time>
      </trkpt>
      <trkpt lat="45.14239" lon="5.60706">
        <ele>1104.8</ele>
        <time>2012-08-14T06:08:47Z</time>
      </trkpt>
      <trkpt lat="45.14225" lon="5.60712">
        <ele>1107.6</ele>
        <time>2012-08-14T06:08:50Z</time>
      </trkpt>
      <trkpt lat="45.14191" lon="5.6071">
        <ele>1108.6</ele>
        <time>2012-08-14T06:08:57Z</time>
      </trkpt>
      <trkpt lat="45.14169" lon="5.60683">
        <ele>1102.3</ele>
        <time>2012-08-14T06:09:04Z</time>
      </trkpt>
      <trkpt lat="45.14169" lon="5.60621">
        <ele>1091.7</ele>
        <time>2012-08-14T06:09:17Z</time>
      </trkpt>
      <trkpt lat="45.14169" lon="5.60598">
        <ele>1088.6</ele>
        <time>2012-08-14T06:09:20Z</time>
      </trkpt>
      <trkpt lat="45.14171" lon="5.60582">
        <ele>1086.4</ele>
        <time>2012-08-14T06:09:22Z</time>
      </trkpt>
      <trkpt lat="45.14162" lon="5.60541">
        <ele>1083.1</ele>
        <time>2012-08-14T06:09:27Z</time>
      </trkpt>
      <trkpt lat="45.14159" lon="5.60532">
        <ele>1082.4</ele>
        <time>2012-08-14T06:09:28Z</time>
      </trkpt>
      <trkpt lat="45.14143" lon="5.60495">
        <ele>1079.1</ele>
        <time>2012-08-14T06:09:32Z</time>
      </trkpt>
      <trkpt lat="45.14123" lon="5.60443">
        <ele>1077.8</ele>
        <time>2012-08-14T06:09:41Z</time>
      </trkpt>
      <trkpt lat="45.14121" lon="5.60423">
        <ele>1077.2</ele>
        <time>2012-08-14T06:09:43Z</time>
      </trkpt>
      <trkpt lat="45.14117" lon="5.60401">
        <ele>1077.8</ele>
        <time>2012-08-14T06:09:45Z</time>
      </trkpt>
      <trkpt lat="45.14116" lon="5.60384">
        <ele>1079.2</ele>
        <time>2012-08-14T06:09:47Z</time>
      </trkpt>
      <trkpt lat="45.14112" lon="5.60363">
        <ele>1080.3</ele>
        <time>2012-08-14T06:09:51Z</time>
      </trkpt>
      <trkpt lat="45.14054" lon="5.60361">
        <ele>1069.7</ele>
        <time>2012-08-14T06:09:55Z</time>
      </trkpt>
      <trkpt lat="45.14048" lon="5.60346">
        <ele>1068.7</ele>
        <time>2012-08-14T06:09:58Z</time>
      </trkpt>
      <trkpt lat="45.14033" lon="5.60325">
        <ele>1065.5</ele>
        <time>2012-08-14T06:10:03Z</time>
      </trkpt>
      <trkpt lat="45.14028" lon="5.6031">
        <ele>1064.3</ele>
        <time>2012-08-14T06:10:06Z</time>
      </trkpt>
      <trkpt lat="45.14023" lon="5.60297">
        <ele>1062.8</ele>
        <time>2012-08-14T06:10:08Z</time>
      </trkpt>
      <trkpt lat="45.14011" lon="5.60265">
        <ele>1058.9</ele>
        <time>2012-08-14T06:10:12Z</time>
      </trkpt>
      <trkpt lat="45.14006" lon="5.60251">
        <ele>1057</ele>
        <time>2012-08-14T06:10:14Z</time>
      </trkpt>
      <trkpt lat="45.13996" lon="5.60212">
        <ele>1054.6</ele>
        <time>2012-08-14T06:10:18Z</time>
      </trkpt>
      <trkpt lat="45.13958" lon="5.60143">
        <ele>1050.7</ele>
        <time>2012-08-14T06:10:24Z</time>
      </trkpt>
      <trkpt lat="45.13909" lon="5.60109">
        <ele>1041.2</ele>
        <time>2012-08-14T06:10:30Z</time>
      </trkpt>
      <trkpt lat="45.13891" lon="5.601">
        <ele>1037.5</ele>
        <time>2012-08-14T06:10:32Z</time>
      </trkpt>
      <trkpt lat="45.13793" lon="5.60073">
        <ele>1025.4</ele>
        <time>2012-08-14T06:10:42Z</time>
      </trkpt>
      <trkpt lat="45.13758" lon="5.6006">
        <ele>1022.6</ele>
        <time>2012-08-14T06:10:49Z</time>
      </trkpt>
      <trkpt lat="45.13724" lon="5.60057">
        <ele>1021.5</ele>
        <time>2012-08-14T06:10:54Z</time>
      </trkpt>
      <trkpt lat="45.13705" lon="5.60039">
        <ele>1020</ele>
        <time>2012-08-14T06:11:00Z</time>
      </trkpt>
      <trkpt lat="45.13682" lon="5.60001">
        <ele>1017.9</ele>
        <time>2012-08-14T06:11:07Z</time>
      </trkpt>
      <trkpt lat="45.13667" lon="5.59971">
        <ele>1019.4</ele>
        <time>2012-08-14T06:11:11Z</time>
      </trkpt>
      <trkpt lat="45.13644" lon="5.59932">
        <ele>1023.7</ele>
        <time>2012-08-14T06:11:19Z</time>
      </trkpt>
      <trkpt lat="45.13627" lon="5.59916">
        <ele>1026.2</ele>
        <time>2012-08-14T06:11:27Z</time>
      </trkpt>
      <trkpt lat="45.13618" lon="5.59904">
        <ele>1027.2</ele>
        <time>2012-08-14T06:11:36Z</time>
      </trkpt>
      <trkpt lat="45.13611" lon="5.59885">
        <ele>1027.7</ele>
        <time>2012-08-14T06:11:45Z</time>
      </trkpt>
      <trkpt lat="45.13608" lon="5.59873">
        <ele>1027.8</ele>
        <time>2012-08-14T06:11:51Z</time>
      </trkpt>
      <trkpt lat="45.13604" lon="5.59854">
        <ele>1027.8</ele>
        <time>2012-08-14T06:12:01Z</time>
      </trkpt>
      <trkpt lat="45.13571" lon="5.59825">
        <ele>1028.1</ele>
        <time>2012-08-14T06:12:17Z</time>
      </trkpt>
      <trkpt lat="45.13548" lon="5.59807">
        <ele>1026.5</ele>
        <time>2012-08-14T06:12:23Z</time>
      </trkpt>
      <trkpt lat="45.13492" lon="5.59759">
        <ele>1023.3</ele>
        <time>2012-08-14T06:12:35Z</time>
      </trkpt>
      <trkpt lat="45.13478" lon="5.59745">
        <ele>1023.1</ele>
        <time>2012-08-14T06:12:38Z</time>
      </trkpt>
      <trkpt lat="45.13452" lon="5.59717">
        <ele>1021.9</ele>
        <time>2012-08-14T06:12:44Z</time>
      </trkpt>
      <trkpt lat="45.13431" lon="5.59698">
        <ele>1020.9</ele>
        <time>2012-08-14T06:12:49Z</time>
      </trkpt>
      <trkpt lat="45.1342" lon="5.59692">
        <ele>1020.6</ele>
        <time>2012-08-14T06:12:51Z</time>
      </trkpt>
      <trkpt lat="45.1339" lon="5.59686">
        <ele>1019.2</ele>
        <time>2012-08-14T06:12:55Z</time>
      </trkpt>
      <trkpt lat="45.13357" lon="5.59684">
        <ele>1018</ele>
        <time>2012-08-14T06:12:59Z</time>
      </trkpt>
      <trkpt lat="45.13349" lon="5.59683">
        <ele>1017.7</ele>
        <time>2012-08-14T06:13:00Z</time>
      </trkpt>
      <trkpt lat="45.13313" lon="5.59654">
        <ele>1018</ele>
        <time>2012-08-14T06:13:06Z</time>
      </trkpt>
      <trkpt lat="45.13274" lon="5.59609">
        <ele>1021.6</ele>
        <time>2012-08-14T06:13:14Z</time>
      </trkpt>
      <trkpt lat="45.13258" lon="5.59598">
        <ele>1023.5</ele>
        <time>2012-08-14T06:13:19Z</time>
      </trkpt>
      <trkpt lat="45.13251" lon="5.59593">
        <ele>1024.4</ele>
        <time>2012-08-14T06:13:22Z</time>
      </trkpt>
      <trkpt lat="45.13233" lon="5.59583">
        <ele>1025</ele>
        <time>2012-08-14T06:13:30Z</time>
      </trkpt>
      <trkpt lat="45.13181" lon="5.5956">
        <ele>1023.5</ele>
        <time>2012-08-14T06:13:48Z</time>
      </trkpt>
      <trkpt lat="45.13096" lon="5.59544">
        <ele>1019.6</ele>
        <time>2012-08-14T06:14:09Z</time>
      </trkpt>
      <trkpt lat="45.1299" lon="5.59525">
        <ele>1021.3</ele>
        <time>2012-08-14T06:14:30Z</time>
      </trkpt>
      <trkpt lat="45.12924" lon="5.59483">
        <ele>1022.3</ele>
        <time>2012-08-14T06:14:47Z</time>
      </trkpt>
      <trkpt lat="45.12899" lon="5.59498">
        <ele>1022.7</ele>
        <time>2012-08-14T06:14:56Z</time>
      </trkpt>
      <trkpt lat="45.12874" lon="5.59555">
        <ele>1024.5</ele>
        <time>2012-08-14T06:15:12Z</time>
      </trkpt>
      <trkpt lat="45.12856" lon="5.59607">
        <ele>1026.7</ele>
        <time>2012-08-14T06:15:24Z</time>
      </trkpt>
      <trkpt lat="45.12834" lon="5.59695">
        <ele>1031.7</ele>
        <time>2012-08-14T06:15:45Z</time>
      </trkpt>
      <trkpt lat="45.12819" lon="5.59763">
        <ele>1035.5</ele>
        <time>2012-08-14T06:16:01Z</time>
      </trkpt>
      <trkpt lat="45.12795" lon="5.59805">
        <ele>1036.8</ele>
        <time>2012-08-14T06:16:15Z</time>
      </trkpt>
      <trkpt lat="45.12761" lon="5.59841">
        <ele>1036.1</ele>
        <time>2012-08-14T06:16:31Z</time>
      </trkpt>
      <trkpt lat="45.12736" lon="5.59896">
        <ele>1037.6</ele>
        <time>2012-08-14T06:16:50Z</time>
      </trkpt>
      <trkpt lat="45.12712" lon="5.59939">
        <ele>1040</ele>
        <time>2012-08-14T06:17:07Z</time>
      </trkpt>
      <trkpt lat="45.12689" lon="5.59984">
        <ele>1042.6</ele>
        <time>2012-08-14T06:17:26Z</time>
      </trkpt>
      <trkpt lat="45.12666" lon="5.60027">
        <ele>1049.6</ele>
        <time>2012-08-14T06:17:44Z</time>
      </trkpt>
      <trkpt lat="45.12643" lon="5.60063">
        <ele>1060.4</ele>
        <time>2012-08-14T06:18:00Z</time>
      </trkpt>
      <trkpt lat="45.12619" lon="5.601">
        <ele>1068.8</ele>
        <time>2012-08-14T06:18:17Z</time>
      </trkpt>
      <trkpt lat="45.12595" lon="5.60133">
        <ele>1072.7</ele>
        <time>2012-08-14T06:18:33Z</time>
      </trkpt>
      <trkpt lat="45.12572" lon="5.60165">
        <ele>1077.4</ele>
        <time>2012-08-14T06:18:49Z</time>
      </trkpt>
      <trkpt lat="45.12548" lon="5.60196">
        <ele>1087.9</ele>
        <time>2012-08-14T06:19:15Z</time>
      </trkpt>
      <trkpt lat="45.12558" lon="5.60183">
        <ele>1084.3</ele>
        <time>2012-08-14T06:20:00Z</time>
      </trkpt>
      <trkpt lat="45.12547" lon="5.60198">
        <ele>1088.3</ele>
        <time>2012-08-14T06:20:09Z</time>
      </trkpt>
      <trkpt lat="45.12522" lon="5.60235">
        <ele>1090.6</ele>
        <time>2012-08-14T06:20:26Z</time>
      </trkpt>
      <trkpt lat="45.12497" lon="5.60272">
        <ele>1094.2</ele>
        <time>2012-08-14T06:20:43Z</time>
      </trkpt>
      <trkpt lat="45.12462" lon="5.60294">
        <ele>1100.8</ele>
        <time>2012-08-14T06:20:59Z</time>
      </trkpt>
      <trkpt lat="45.12431" lon="5.60283">
        <ele>1099.4</ele>
        <time>2012-08-14T06:21:13Z</time>
      </trkpt>
      <trkpt lat="45.12402" lon="5.60273">
        <ele>1102.4</ele>
        <time>2012-08-14T06:21:27Z</time>
      </trkpt>
      <trkpt lat="45.12379" lon="5.60263">
        <ele>1107.4</ele>
        <time>2012-08-14T06:21:40Z</time>
      </trkpt>
      <trkpt lat="45.12351" lon="5.60269">
        <ele>1112.6</ele>
        <time>2012-08-14T06:21:55Z</time>
      </trkpt>
      <trkpt lat="45.12321" lon="5.60295">
        <ele>1114.8</ele>
        <time>2012-08-14T06:22:13Z</time>
      </trkpt>
      <trkpt lat="45.12294" lon="5.60332">
        <ele>1111.6</ele>
        <time>2012-08-14T06:22:33Z</time>
      </trkpt>
      <trkpt lat="45.12267" lon="5.60364">
        <ele>1112.6</ele>
        <time>2012-08-14T06:22:52Z</time>
      </trkpt>
      <trkpt lat="45.12234" lon="5.60378">
        <ele>1113.1</ele>
        <time>2012-08-14T06:23:12Z</time>
      </trkpt>
      <trkpt lat="45.12205" lon="5.60382">
        <ele>1114.3</ele>
        <time>2012-08-14T06:23:29Z</time>
      </trkpt>
      <trkpt lat="45.12168" lon="5.6037">
        <ele>1117.4</ele>
        <time>2012-08-14T06:23:50Z</time>
      </trkpt>
      <trkpt lat="45.1213" lon="5.60343">
        <ele>1119.8</ele>
        <time>2012-08-14T06:24:11Z</time>
      </trkpt>
      <trkpt lat="45.12092" lon="5.60315">
        <ele>1124</ele>
        <time>2012-08-14T06:24:32Z</time>
      </trkpt>
      <trkpt lat="45.12053" lon="5.60305">
        <ele>1125.6</ele>
        <time>2012-08-14T06:24:52Z</time>
      </trkpt>
      <trkpt lat="45.12053" lon="5.60339">
        <ele>1120.2</ele>
        <time>2012-08-14T06:25:06Z</time>
      </trkpt>
      <trkpt lat="45.12078" lon="5.60374">
        <ele>1121.7</ele>
        <time>2012-08-14T06:25:20Z</time>
      </trkpt>
      <trkpt lat="45.12068" lon="5.60389">
        <ele>1123.2</ele>
        <time>2012-08-14T06:25:26Z</time>
      </trkpt>
      <trkpt lat="45.12024" lon="5.60376">
        <ele>1124.4</ele>
        <time>2012-08-14T06:25:42Z</time>
      </trkpt>
      <trkpt lat="45.11967" lon="5.6036">
        <ele>1126.8</ele>
        <time>2012-08-14T06:26:04Z</time>
      </trkpt>
      <trkpt lat="45.11929" lon="5.60356">
        <ele>1129.9</ele>
        <time>2012-08-14T06:26:20Z</time>
      </trkpt>
      <trkpt lat="45.11888" lon="5.60327">
        <ele>1131.7</ele>
        <time>2012-08-14T06:26:39Z</time>
      </trkpt>
      <trkpt lat="45.11845" lon="5.60304">
        <ele>1133.3</ele>
        <time>2012-08-14T06:27:00Z</time>
      </trkpt>
      <trkpt lat="45.11822" lon="5.60289">
        <ele>1134.6</ele>
        <time>2012-08-14T06:27:14Z</time>
      </trkpt>
      <trkpt lat="45.11797" lon="5.60277">
        <ele>1137.9</ele>
        <time>2012-08-14T06:27:29Z</time>
      </trkpt>
      <trkpt lat="45.11771" lon="5.60268">
        <ele>1141.4</ele>
        <time>2012-08-14T06:27:45Z</time>
      </trkpt>
      <trkpt lat="45.1174" lon="5.60246">
        <ele>1143.8</ele>
        <time>2012-08-14T06:28:05Z</time>
      </trkpt>
      <trkpt lat="45.11716" lon="5.60228">
        <ele>1147.3</ele>
        <time>2012-08-14T06:28:20Z</time>
      </trkpt>
      <trkpt lat="45.11703" lon="5.60219">
        <ele>1148.5</ele>
        <time>2012-08-14T06:28:30Z</time>
      </trkpt>
      <trkpt lat="45.11689" lon="5.6021">
        <ele>1149.5</ele>
        <time>2012-08-14T06:28:42Z</time>
      </trkpt>
      <trkpt lat="45.11665" lon="5.60203">
        <ele>1151.7</ele>
        <time>2012-08-14T06:29:00Z</time>
      </trkpt>
      <trkpt lat="45.1164" lon="5.60196">
        <ele>1156.8</ele>
        <time>2012-08-14T06:29:16Z</time>
      </trkpt>
      <trkpt lat="45.11622" lon="5.60191">
        <ele>1160.2</ele>
        <time>2012-08-14T06:29:29Z</time>
      </trkpt>
      <trkpt lat="45.11602" lon="5.60187">
        <ele>1164</ele>
        <time>2012-08-14T06:29:44Z</time>
      </trkpt>
      <trkpt lat="45.11594" lon="5.60185">
        <ele>1165.5</ele>
        <time>2012-08-14T06:29:51Z</time>
      </trkpt>
      <trkpt lat="45.11576" lon="5.60179">
        <ele>1168.2</ele>
        <time>2012-08-14T06:30:02Z</time>
      </trkpt>
      <trkpt lat="45.11552" lon="5.60173">
        <ele>1171.8</ele>
        <time>2012-08-14T06:30:18Z</time>
      </trkpt>
      <trkpt lat="45.11526" lon="5.6017">
        <ele>1176.9</ele>
        <time>2012-08-14T06:30:35Z</time>
      </trkpt>
      <trkpt lat="45.11509" lon="5.60167">
        <ele>1180.2</ele>
        <time>2012-08-14T06:30:50Z</time>
      </trkpt>
      <trkpt lat="45.11484" lon="5.60165">
        <ele>1184.2</ele>
        <time>2012-08-14T06:31:08Z</time>
      </trkpt>
      <trkpt lat="45.11459" lon="5.60165">
        <ele>1187.4</ele>
        <time>2012-08-14T06:31:25Z</time>
      </trkpt>
      <trkpt lat="45.11438" lon="5.60165">
        <ele>1190.2</ele>
        <time>2012-08-14T06:31:41Z</time>
      </trkpt>
      <trkpt lat="45.11417" lon="5.60164">
        <ele>1193</ele>
        <time>2012-08-14T06:31:55Z</time>
      </trkpt>
      <trkpt lat="45.11392" lon="5.60163">
        <ele>1194.1</ele>
        <time>2012-08-14T06:32:13Z</time>
      </trkpt>
      <trkpt lat="45.11381" lon="5.60163">
        <ele>1194.6</ele>
        <time>2012-08-14T06:32:22Z</time>
      </trkpt>
      <trkpt lat="45.11373" lon="5.60162">
        <ele>1195</ele>
        <time>2012-08-14T06:32:29Z</time>
      </trkpt>
      <trkpt lat="45.11366" lon="5.60162">
        <ele>1195.4</ele>
        <time>2012-08-14T06:32:33Z</time>
      </trkpt>
      <trkpt lat="45.11346" lon="5.60161">
        <ele>1196.4</ele>
        <time>2012-08-14T06:32:45Z</time>
      </trkpt>
      <trkpt lat="45.1132" lon="5.60162">
        <ele>1198.5</ele>
        <time>2012-08-14T06:32:58Z</time>
      </trkpt>
      <trkpt lat="45.11299" lon="5.60164">
        <ele>1200.8</ele>
        <time>2012-08-14T06:33:07Z</time>
      </trkpt>
      <trkpt lat="45.11282" lon="5.60166">
        <ele>1202.2</ele>
        <time>2012-08-14T06:33:14Z</time>
      </trkpt>
      <trkpt lat="45.11271" lon="5.60168">
        <ele>1203.8</ele>
        <time>2012-08-14T06:33:19Z</time>
      </trkpt>
      <trkpt lat="45.11253" lon="5.60171">
        <ele>1206.4</ele>
        <time>2012-08-14T06:33:29Z</time>
      </trkpt>
      <trkpt lat="45.11233" lon="5.60173">
        <ele>1211.2</ele>
        <time>2012-08-14T06:33:40Z</time>
      </trkpt>
      <trkpt lat="45.11221" lon="5.60175">
        <ele>1214.5</ele>
        <time>2012-08-14T06:33:52Z</time>
      </trkpt>
      <trkpt lat="45.11204" lon="5.60178">
        <ele>1218.7</ele>
        <time>2012-08-14T06:34:00Z</time>
      </trkpt>
      <trkpt lat="45.11185" lon="5.6018">
        <ele>1223</ele>
        <time>2012-08-14T06:34:18Z</time>
      </trkpt>
      <trkpt lat="45.11159" lon="5.60189">
        <ele>1229.6</ele>
        <time>2012-08-14T06:34:40Z</time>
      </trkpt>
      <trkpt lat="45.11134" lon="5.60198">
        <ele>1236.3</ele>
        <time>2012-08-14T06:34:55Z</time>
      </trkpt>
      <trkpt lat="45.11123" lon="5.60203">
        <ele>1239</ele>
        <time>2012-08-14T06:35:11Z</time>
      </trkpt>
      <trkpt lat="45.11116" lon="5.60206">
        <ele>1240.2</ele>
        <time>2012-08-14T06:36:07Z</time>
      </trkpt>
      <trkpt lat="45.11064" lon="5.60177">
        <ele>1261.8</ele>
        <time>2012-08-14T06:36:22Z</time>
      </trkpt>
      <trkpt lat="45.11055" lon="5.60184">
        <ele>1263.3</ele>
        <time>2012-08-14T06:36:37Z</time>
      </trkpt>
      <trkpt lat="45.11036" lon="5.60198">
        <ele>1265.9</ele>
        <time>2012-08-14T06:36:55Z</time>
      </trkpt>
      <trkpt lat="45.11018" lon="5.60212">
        <ele>1267.4</ele>
        <time>2012-08-14T06:37:13Z</time>
      </trkpt>
      <trkpt lat="45.11007" lon="5.6022">
        <ele>1267.9</ele>
        <time>2012-08-14T06:37:21Z</time>
      </trkpt>
      <trkpt lat="45.10997" lon="5.60227">
        <ele>1268.1</ele>
        <time>2012-08-14T06:37:41Z</time>
      </trkpt>
      <trkpt lat="45.10982" lon="5.60239">
        <ele>1268.3</ele>
        <time>2012-08-14T06:37:49Z</time>
      </trkpt>
      <trkpt lat="45.10969" lon="5.6025">
        <ele>1268.1</ele>
        <time>2012-08-14T06:38:08Z</time>
      </trkpt>
      <trkpt lat="45.1096" lon="5.60257">
        <ele>1269.9</ele>
        <time>2012-08-14T06:38:19Z</time>
      </trkpt>
      <trkpt lat="45.10953" lon="5.60349">
        <ele>1267.1</ele>
        <time>2012-08-14T06:38:37Z</time>
      </trkpt>
      <trkpt lat="45.10942" lon="5.60351">
        <ele>1268.2</ele>
        <time>2012-08-14T06:38:43Z</time>
      </trkpt>
      <trkpt lat="45.10921" lon="5.60352">
        <ele>1269.6</ele>
        <time>2012-08-14T06:38:57Z</time>
      </trkpt>
      <trkpt lat="45.109" lon="5.60352">
        <ele>1271.8</ele>
        <time>2012-08-14T06:39:15Z</time>
      </trkpt>
      <trkpt lat="45.10885" lon="5.60351">
        <ele>1273.4</ele>
        <time>2012-08-14T06:39:25Z</time>
      </trkpt>
      <trkpt lat="45.10876" lon="5.60348">
        <ele>1274.2</ele>
        <time>2012-08-14T06:40:35Z</time>
      </trkpt>
      <trkpt lat="45.10836" lon="5.60342">
        <ele>1278.9</ele>
        <time>2012-08-14T06:40:50Z</time>
      </trkpt>
      <trkpt lat="45.1083" lon="5.6034">
        <ele>1280</ele>
        <time>2012-08-14T06:41:13Z</time>
      </trkpt>
      <trkpt lat="45.10803" lon="5.60338">
        <ele>1285.5</ele>
        <time>2012-08-14T06:41:23Z</time>
      </trkpt>
      <trkpt lat="45.10792" lon="5.60337">
        <ele>1287.9</ele>
        <time>2012-08-14T06:41:36Z</time>
      </trkpt>
      <trkpt lat="45.10774" lon="5.6034">
        <ele>1291.6</ele>
        <time>2012-08-14T06:41:50Z</time>
      </trkpt>
      <trkpt lat="45.10768" lon="5.6034">
        <ele>1292.8</ele>
        <time>2012-08-14T06:41:54Z</time>
      </trkpt>
      <trkpt lat="45.10761" lon="5.60341">
        <ele>1294.2</ele>
        <time>2012-08-14T06:41:59Z</time>
      </trkpt>
      <trkpt lat="45.10732" lon="5.60348">
        <ele>1298.1</ele>
        <time>2012-08-14T06:42:19Z</time>
      </trkpt>
      <trkpt lat="45.10703" lon="5.60357">
        <ele>1300.9</ele>
        <time>2012-08-14T06:42:37Z</time>
      </trkpt>
      <trkpt lat="45.10672" lon="5.60367">
        <ele>1303</ele>
        <time>2012-08-14T06:42:59Z</time>
      </trkpt>
      <trkpt lat="45.1064" lon="5.60377">
        <ele>1303.5</ele>
        <time>2012-08-14T06:43:20Z</time>
      </trkpt>
      <trkpt lat="45.10603" lon="5.6038">
        <ele>1305.7</ele>
        <time>2012-08-14T06:43:42Z</time>
      </trkpt>
      <trkpt lat="45.10569" lon="5.60378">
        <ele>1308.9</ele>
        <time>2012-08-14T06:44:05Z</time>
      </trkpt>
      <trkpt lat="45.10543" lon="5.60398">
        <ele>1308.7</ele>
        <time>2012-08-14T06:44:27Z</time>
      </trkpt>
      <trkpt lat="45.10552" lon="5.60437">
        <ele>1308.5</ele>
        <time>2012-08-14T06:44:44Z</time>
      </trkpt>
      <trkpt lat="45.10587" lon="5.60463">
        <ele>1306.2</ele>
        <time>2012-08-14T06:45:01Z</time>
      </trkpt>
      <trkpt lat="45.10618" lon="5.60489">
        <ele>1306.3</ele>
        <time>2012-08-14T06:45:18Z</time>
      </trkpt>
      <trkpt lat="45.10654" lon="5.60517">
        <ele>1310</ele>
        <time>2012-08-14T06:45:36Z</time>
      </trkpt>
      <trkpt lat="45.1068" lon="5.60536">
        <ele>1314.5</ele>
        <time>2012-08-14T06:45:52Z</time>
      </trkpt>
      <trkpt lat="45.10709" lon="5.60552">
        <ele>1318.5</ele>
        <time>2012-08-14T06:46:08Z</time>
      </trkpt>
      <trkpt lat="45.1074" lon="5.60559">
        <ele>1319.3</ele>
        <time>2012-08-14T06:46:24Z</time>
      </trkpt>
      <trkpt lat="45.10772" lon="5.60563">
        <ele>1322.6</ele>
        <time>2012-08-14T06:46:42Z</time>
      </trkpt>
      <trkpt lat="45.10812" lon="5.60565">
        <ele>1327.6</ele>
        <time>2012-08-14T06:47:03Z</time>
      </trkpt>
      <trkpt lat="45.10844" lon="5.60565">
        <ele>1330.3</ele>
        <time>2012-08-14T06:47:20Z</time>
      </trkpt>
      <trkpt lat="45.10876" lon="5.60566">
        <ele>1331.3</ele>
        <time>2012-08-14T06:47:38Z</time>
      </trkpt>
      <trkpt lat="45.10901" lon="5.60567">
        <ele>1332</ele>
        <time>2012-08-14T06:47:52Z</time>
      </trkpt>
      <trkpt lat="45.10936" lon="5.60567">
        <ele>1333.9</ele>
        <time>2012-08-14T06:48:10Z</time>
      </trkpt>
      <trkpt lat="45.10971" lon="5.60567">
        <ele>1337</ele>
        <time>2012-08-14T06:48:29Z</time>
      </trkpt>
      <trkpt lat="45.11006" lon="5.60567">
        <ele>1339.7</ele>
        <time>2012-08-14T06:48:48Z</time>
      </trkpt>
      <trkpt lat="45.11037" lon="5.60569">
        <ele>1341</ele>
        <time>2012-08-14T06:49:05Z</time>
      </trkpt>
      <trkpt lat="45.1107" lon="5.60575">
        <ele>1343.7</ele>
        <time>2012-08-14T06:49:24Z</time>
      </trkpt>
      <trkpt lat="45.11093" lon="5.6058">
        <ele>1346.3</ele>
        <time>2012-08-14T06:49:37Z</time>
      </trkpt>
      <trkpt lat="45.11121" lon="5.60583">
        <ele>1349.5</ele>
        <time>2012-08-14T06:49:52Z</time>
      </trkpt>
      <trkpt lat="45.1115" lon="5.60585">
        <ele>1352.3</ele>
        <time>2012-08-14T06:50:08Z</time>
      </trkpt>
      <trkpt lat="45.11182" lon="5.60586">
        <ele>1354.2</ele>
        <time>2012-08-14T06:50:25Z</time>
      </trkpt>
      <trkpt lat="45.11219" lon="5.60588">
        <ele>1355.5</ele>
        <time>2012-08-14T06:50:45Z</time>
      </trkpt>
      <trkpt lat="45.11253" lon="5.60589">
        <ele>1356.8</ele>
        <time>2012-08-14T06:51:02Z</time>
      </trkpt>
      <trkpt lat="45.11291" lon="5.60592">
        <ele>1360.3</ele>
        <time>2012-08-14T06:51:21Z</time>
      </trkpt>
      <trkpt lat="45.11314" lon="5.60595">
        <ele>1362.7</ele>
        <time>2012-08-14T06:51:34Z</time>
      </trkpt>
      <trkpt lat="45.11319" lon="5.60595">
        <ele>1363.1</ele>
        <time>2012-08-14T06:51:37Z</time>
      </trkpt>
      <trkpt lat="45.11324" lon="5.60598">
        <ele>1364.5</ele>
        <time>2012-08-14T06:51:41Z</time>
      </trkpt>
      <trkpt lat="45.1132" lon="5.60608">
        <ele>1366.9</ele>
        <time>2012-08-14T06:51:48Z</time>
      </trkpt>
      <trkpt lat="45.11293" lon="5.60616">
        <ele>1367.1</ele>
        <time>2012-08-14T06:52:07Z</time>
      </trkpt>
      <trkpt lat="45.11277" lon="5.60625">
        <ele>1368.5</ele>
        <time>2012-08-14T06:52:21Z</time>
      </trkpt>
      <trkpt lat="45.11275" lon="5.60627">
        <ele>1369</ele>
        <time>2012-08-14T06:52:23Z</time>
      </trkpt>
      <trkpt lat="45.11259" lon="5.60644">
        <ele>1372.4</ele>
        <time>2012-08-14T06:52:37Z</time>
      </trkpt>
      <trkpt lat="45.11222" lon="5.60654">
        <ele>1375.5</ele>
        <time>2012-08-14T06:53:00Z</time>
      </trkpt>
      <trkpt lat="45.11205" lon="5.60644">
        <ele>1373</ele>
        <time>2012-08-14T06:53:14Z</time>
      </trkpt>
      <trkpt lat="45.11201" lon="5.60653">
        <ele>1376</ele>
        <time>2012-08-14T06:53:23Z</time>
      </trkpt>
      <trkpt lat="45.11237" lon="5.60676">
        <ele>1380.5</ele>
        <time>2012-08-14T06:53:40Z</time>
      </trkpt>
      <trkpt lat="45.1128" lon="5.60677">
        <ele>1382.3</ele>
        <time>2012-08-14T06:54:00Z</time>
      </trkpt>
      <trkpt lat="45.11288" lon="5.60698">
        <ele>1387.2</ele>
        <time>2012-08-14T06:54:09Z</time>
      </trkpt>
      <trkpt lat="45.11257" lon="5.60726">
        <ele>1390.7</ele>
        <time>2012-08-14T06:54:27Z</time>
      </trkpt>
      <trkpt lat="45.11215" lon="5.60715">
        <ele>1389.9</ele>
        <time>2012-08-14T06:54:46Z</time>
      </trkpt>
      <trkpt lat="45.11168" lon="5.60693">
        <ele>1387.9</ele>
        <time>2012-08-14T06:55:09Z</time>
      </trkpt>
      <trkpt lat="45.11123" lon="5.60676">
        <ele>1392</ele>
        <time>2012-08-14T06:55:29Z</time>
      </trkpt>
      <trkpt lat="45.11106" lon="5.60685">
        <ele>1397.3</ele>
        <time>2012-08-14T06:55:38Z</time>
      </trkpt>
      <trkpt lat="45.11106" lon="5.60699">
        <ele>1400.7</ele>
        <time>2012-08-14T06:55:43Z</time>
      </trkpt>
      <trkpt lat="45.11116" lon="5.60711">
        <ele>1401.6</ele>
        <time>2012-08-14T06:55:50Z</time>
      </trkpt>
      <trkpt lat="45.11162" lon="5.60744">
        <ele>1400.6</ele>
        <time>2012-08-14T06:56:12Z</time>
      </trkpt>
      <trkpt lat="45.112" lon="5.60785">
        <ele>1402.2</ele>
        <time>2012-08-14T06:56:34Z</time>
      </trkpt>
      <trkpt lat="45.11242" lon="5.60803">
        <ele>1401.2</ele>
        <time>2012-08-14T06:56:54Z</time>
      </trkpt>
      <trkpt lat="45.11292" lon="5.60806">
        <ele>1404</ele>
        <time>2012-08-14T06:57:15Z</time>
      </trkpt>
      <trkpt lat="45.11321" lon="5.6079">
        <ele>1404.5</ele>
        <time>2012-08-14T06:57:28Z</time>
      </trkpt>
      <trkpt lat="45.11324" lon="5.60803">
        <ele>1406</ele>
        <time>2012-08-14T06:57:35Z</time>
      </trkpt>
      <trkpt lat="45.11279" lon="5.60855">
        <ele>1408.9</ele>
        <time>2012-08-14T06:58:00Z</time>
      </trkpt>
      <trkpt lat="45.11245" lon="5.60884">
        <ele>1411.5</ele>
        <time>2012-08-14T06:58:37Z</time>
      </trkpt>
      <trkpt lat="45.1128" lon="5.60897">
        <ele>1414.5</ele>
        <time>2012-08-14T06:58:52Z</time>
      </trkpt>
      <trkpt lat="45.11278" lon="5.60902">
        <ele>1415.1</ele>
        <time>2012-08-14T06:58:55Z</time>
      </trkpt>
      <trkpt lat="45.11266" lon="5.60909">
        <ele>1415.5</ele>
        <time>2012-08-14T06:59:42Z</time>
      </trkpt>
      <trkpt lat="45.11306" lon="5.609">
        <ele>1416.1</ele>
        <time>2012-08-14T06:59:57Z</time>
      </trkpt>
      <trkpt lat="45.11343" lon="5.60889">
        <ele>1416.2</ele>
        <time>2012-08-14T07:00:14Z</time>
      </trkpt>
      <trkpt lat="45.11348" lon="5.60885">
        <ele>1416</ele>
        <time>2012-08-14T07:00:58Z</time>
      </trkpt>
      <trkpt lat="45.11366" lon="5.60891">
        <ele>1417</ele>
        <time>2012-08-14T07:01:10Z</time>
      </trkpt>
      <trkpt lat="45.11382" lon="5.60892">
        <ele>1417.4</ele>
        <time>2012-08-14T07:01:18Z</time>
      </trkpt>
      <trkpt lat="45.11381" lon="5.60902">
        <ele>1418.3</ele>
        <time>2012-08-14T07:01:25Z</time>
      </trkpt>
      <trkpt lat="45.11372" lon="5.60916">
        <ele>1419.4</ele>
        <time>2012-08-14T07:01:33Z</time>
      </trkpt>
      <trkpt lat="45.11369" lon="5.60944">
        <ele>1420.8</ele>
        <time>2012-08-14T07:01:46Z</time>
      </trkpt>
      <trkpt lat="45.11388" lon="5.60965">
        <ele>1421.8</ele>
        <time>2012-08-14T07:01:56Z</time>
      </trkpt>
      <trkpt lat="45.11431" lon="5.60996">
        <ele>1421.1</ele>
        <time>2012-08-14T07:02:09Z</time>
      </trkpt>
      <trkpt lat="45.1146" lon="5.61039">
        <ele>1420.6</ele>
        <time>2012-08-14T07:02:23Z</time>
      </trkpt>
      <trkpt lat="45.11486" lon="5.61045">
        <ele>1418.7</ele>
        <time>2012-08-14T07:02:30Z</time>
      </trkpt>
      <trkpt lat="45.11495" lon="5.61045">
        <ele>1417.9</ele>
        <time>2012-08-14T07:02:32Z</time>
      </trkpt>
      <trkpt lat="45.11505" lon="5.61045">
        <ele>1416.9</ele>
        <time>2012-08-14T07:02:34Z</time>
      </trkpt>
      <trkpt lat="45.11514" lon="5.61045">
        <ele>1415.6</ele>
        <time>2012-08-14T07:02:36Z</time>
      </trkpt>
      <trkpt lat="45.11535" lon="5.61056">
        <ele>1414.4</ele>
        <time>2012-08-14T07:02:41Z</time>
      </trkpt>
      <trkpt lat="45.11558" lon="5.61093">
        <ele>1416.6</ele>
        <time>2012-08-14T07:02:56Z</time>
      </trkpt>
      <trkpt lat="45.11599" lon="5.61138">
        <ele>1419.1</ele>
        <time>2012-08-14T07:03:21Z</time>
      </trkpt>
      <trkpt lat="45.11613" lon="5.61147">
        <ele>1419.5</ele>
        <time>2012-08-14T07:03:36Z</time>
      </trkpt>
      <trkpt lat="45.11625" lon="5.61156">
        <ele>1420</ele>
        <time>2012-08-14T07:03:55Z</time>
      </trkpt>
      <trkpt lat="45.11634" lon="5.6116">
        <ele>1420.2</ele>
        <time>2012-08-14T07:04:05Z</time>
      </trkpt>
      <trkpt lat="45.11641" lon="5.61173">
        <ele>1422.2</ele>
        <time>2012-08-14T07:04:26Z</time>
      </trkpt>
      <trkpt lat="45.11646" lon="5.61177">
        <ele>1422.8</ele>
        <time>2012-08-14T07:05:03Z</time>
      </trkpt>
      <trkpt lat="45.11652" lon="5.61182">
        <ele>1423.6</ele>
        <time>2012-08-14T07:05:19Z</time>
      </trkpt>
      <trkpt lat="45.11661" lon="5.61197">
        <ele>1426.3</ele>
        <time>2012-08-14T07:05:30Z</time>
      </trkpt>
      <trkpt lat="45.11669" lon="5.61214">
        <ele>1429.5</ele>
        <time>2012-08-14T07:05:42Z</time>
      </trkpt>
      <trkpt lat="45.11673" lon="5.61224">
        <ele>1431.6</ele>
        <time>2012-08-14T07:05:56Z</time>
      </trkpt>
      <trkpt lat="45.11677" lon="5.61239">
        <ele>1435</ele>
        <time>2012-08-14T07:06:15Z</time>
      </trkpt>
      <trkpt lat="45.11676" lon="5.61248">
        <ele>1437.1</ele>
        <time>2012-08-14T07:06:40Z</time>
      </trkpt>
      <trkpt lat="45.11676" lon="5.61263">
        <ele>1440.5</ele>
        <time>2012-08-14T07:06:55Z</time>
      </trkpt>
      <trkpt lat="45.11677" lon="5.61281">
        <ele>1444.7</ele>
        <time>2012-08-14T07:07:11Z</time>
      </trkpt>
      <trkpt lat="45.11682" lon="5.61302">
        <ele>1449.1</ele>
        <time>2012-08-14T07:07:29Z</time>
      </trkpt>
      <trkpt lat="45.11686" lon="5.6132">
        <ele>1452.8</ele>
        <time>2012-08-14T07:07:46Z</time>
      </trkpt>
      <trkpt lat="45.11688" lon="5.61333">
        <ele>1455.7</ele>
        <time>2012-08-14T07:08:07Z</time>
      </trkpt>
      <trkpt lat="45.11702" lon="5.61359">
        <ele>1458.7</ele>
        <time>2012-08-14T07:08:24Z</time>
      </trkpt>
      <trkpt lat="45.11731" lon="5.61383">
        <ele>1461.9</ele>
        <time>2012-08-14T07:08:49Z</time>
      </trkpt>
      <trkpt lat="45.11749" lon="5.61399">
        <ele>1464.7</ele>
        <time>2012-08-14T07:09:03Z</time>
      </trkpt>
      <trkpt lat="45.11773" lon="5.61412">
        <ele>1464.2</ele>
        <time>2012-08-14T07:09:19Z</time>
      </trkpt>
      <trkpt lat="45.11807" lon="5.61445">
        <ele>1464.6</ele>
        <time>2012-08-14T07:09:41Z</time>
      </trkpt>
      <trkpt lat="45.11823" lon="5.61468">
        <ele>1465.4</ele>
        <time>2012-08-14T07:09:54Z</time>
      </trkpt>
      <trkpt lat="45.11832" lon="5.61485">
        <ele>1466.4</ele>
        <time>2012-08-14T07:10:02Z</time>
      </trkpt>
      <trkpt lat="45.11842" lon="5.61517">
        <ele>1468.8</ele>
        <time>2012-08-14T07:10:12Z</time>
      </trkpt>
      <trkpt lat="45.11845" lon="5.61531">
        <ele>1470.3</ele>
        <time>2012-08-14T07:10:16Z</time>
      </trkpt>
      <trkpt lat="45.11843" lon="5.6154">
        <ele>1471.9</ele>
        <time>2012-08-14T07:10:20Z</time>
      </trkpt>
      <trkpt lat="45.11841" lon="5.61564">
        <ele>1475.7</ele>
        <time>2012-08-14T07:10:31Z</time>
      </trkpt>
      <trkpt lat="45.11843" lon="5.61569">
        <ele>1476.1</ele>
        <time>2012-08-14T07:10:33Z</time>
      </trkpt>
      <trkpt lat="45.11838" lon="5.61574">
        <ele>1477.8</ele>
        <time>2012-08-14T07:10:38Z</time>
      </trkpt>
      <trkpt lat="45.11837" lon="5.61583">
        <ele>1479.4</ele>
        <time>2012-08-14T07:10:45Z</time>
      </trkpt>
      <trkpt lat="45.11841" lon="5.61598">
        <ele>1480.9</ele>
        <time>2012-08-14T07:10:52Z</time>
      </trkpt>
      <trkpt lat="45.11845" lon="5.6161">
        <ele>1482.3</ele>
        <time>2012-08-14T07:10:59Z</time>
      </trkpt>
      <trkpt lat="45.11845" lon="5.6163">
        <ele>1485.6</ele>
        <time>2012-08-14T07:11:11Z</time>
      </trkpt>
      <trkpt lat="45.1185" lon="5.61641">
        <ele>1486.6</ele>
        <time>2012-08-14T07:11:17Z</time>
      </trkpt>
      <trkpt lat="45.11869" lon="5.61671">
        <ele>1488</ele>
        <time>2012-08-14T07:11:36Z</time>
      </trkpt>
      <trkpt lat="45.1188" lon="5.61701">
        <ele>1492</ele>
        <time>2012-08-14T07:11:54Z</time>
      </trkpt>
      <trkpt lat="45.11893" lon="5.61722">
        <ele>1494.6</ele>
        <time>2012-08-14T07:12:11Z</time>
      </trkpt>
      <trkpt lat="45.11913" lon="5.6173">
        <ele>1493.7</ele>
        <time>2012-08-14T07:12:28Z</time>
      </trkpt>
      <trkpt lat="45.1193" lon="5.61739">
        <ele>1495.6</ele>
        <time>2012-08-14T07:12:44Z</time>
      </trkpt>
      <trkpt lat="45.11943" lon="5.61743">
        <ele>1496.5</ele>
        <time>2012-08-14T07:12:57Z</time>
      </trkpt>
      <trkpt lat="45.11961" lon="5.61747">
        <ele>1497.9</ele>
        <time>2012-08-14T07:13:13Z</time>
      </trkpt>
      <trkpt lat="45.11966" lon="5.61754">
        <ele>1499.2</ele>
        <time>2012-08-14T07:13:19Z</time>
      </trkpt>
      <trkpt lat="45.1197" lon="5.61769">
        <ele>1501.3</ele>
        <time>2012-08-14T07:13:28Z</time>
      </trkpt>
      <trkpt lat="45.1197" lon="5.61776">
        <ele>1502.2</ele>
        <time>2012-08-14T07:13:32Z</time>
      </trkpt>
      <trkpt lat="45.11971" lon="5.61786">
        <ele>1503.6</ele>
        <time>2012-08-14T07:13:38Z</time>
      </trkpt>
      <trkpt lat="45.1199" lon="5.61825">
        <ele>1508.9</ele>
        <time>2012-08-14T07:14:04Z</time>
      </trkpt>
      <trkpt lat="45.11996" lon="5.61832">
        <ele>1509.8</ele>
        <time>2012-08-14T07:14:10Z</time>
      </trkpt>
      <trkpt lat="45.12009" lon="5.61855">
        <ele>1512.4</ele>
        <time>2012-08-14T07:14:27Z</time>
      </trkpt>
      <trkpt lat="45.1203" lon="5.61885">
        <ele>1514.7</ele>
        <time>2012-08-14T07:14:48Z</time>
      </trkpt>
      <trkpt lat="45.12042" lon="5.61909">
        <ele>1516.6</ele>
        <time>2012-08-14T07:14:59Z</time>
      </trkpt>
      <trkpt lat="45.12051" lon="5.61937">
        <ele>1520.6</ele>
        <time>2012-08-14T07:15:11Z</time>
      </trkpt>
      <trkpt lat="45.12058" lon="5.61954">
        <ele>1523.1</ele>
        <time>2012-08-14T07:15:21Z</time>
      </trkpt>
      <trkpt lat="45.12068" lon="5.61966">
        <ele>1524.3</ele>
        <time>2012-08-14T07:15:30Z</time>
      </trkpt>
      <trkpt lat="45.12077" lon="5.61973">
        <ele>1524.7</ele>
        <time>2012-08-14T07:15:38Z</time>
      </trkpt>
      <trkpt lat="45.12092" lon="5.61983">
        <ele>1524.6</ele>
        <time>2012-08-14T07:15:51Z</time>
      </trkpt>
      <trkpt lat="45.12103" lon="5.61996">
        <ele>1525.3</ele>
        <time>2012-08-14T07:16:04Z</time>
      </trkpt>
      <trkpt lat="45.12114" lon="5.62014">
        <ele>1528.4</ele>
        <time>2012-08-14T07:16:30Z</time>
      </trkpt>
      <trkpt lat="45.12131" lon="5.62038">
        <ele>1533.3</ele>
        <time>2012-08-14T07:17:25Z</time>
      </trkpt>
      <trkpt lat="45.12145" lon="5.6205">
        <ele>1535.1</ele>
        <time>2012-08-14T07:17:39Z</time>
      </trkpt>
      <trkpt lat="45.12159" lon="5.62062">
        <ele>1537.2</ele>
        <time>2012-08-14T07:17:53Z</time>
      </trkpt>
      <trkpt lat="45.12175" lon="5.62077">
        <ele>1540.3</ele>
        <time>2012-08-14T07:18:10Z</time>
      </trkpt>
      <trkpt lat="45.12186" lon="5.6209">
        <ele>1544.3</ele>
        <time>2012-08-14T07:18:25Z</time>
      </trkpt>
      <trkpt lat="45.122" lon="5.62101">
        <ele>1547.2</ele>
        <time>2012-08-14T07:18:43Z</time>
      </trkpt>
      <trkpt lat="45.12211" lon="5.62107">
        <ele>1548.5</ele>
        <time>2012-08-14T07:19:01Z</time>
      </trkpt>
      <trkpt lat="45.12223" lon="5.62115">
        <ele>1549.9</ele>
        <time>2012-08-14T07:19:24Z</time>
      </trkpt>
      <trkpt lat="45.12229" lon="5.62125">
        <ele>1552.6</ele>
        <time>2012-08-14T07:19:47Z</time>
      </trkpt>
      <trkpt lat="45.12239" lon="5.62135">
        <ele>1554.7</ele>
        <time>2012-08-14T07:20:07Z</time>
      </trkpt>
      <trkpt lat="45.1225" lon="5.62148">
        <ele>1557.1</ele>
        <time>2012-08-14T07:20:28Z</time>
      </trkpt>
      <trkpt lat="45.12258" lon="5.62156">
        <ele>1558.8</ele>
        <time>2012-08-14T07:20:49Z</time>
      </trkpt>
      <trkpt lat="45.12264" lon="5.62171">
        <ele>1562.9</ele>
        <time>2012-08-14T07:21:11Z</time>
      </trkpt>
      <trkpt lat="45.12269" lon="5.62188">
        <ele>1567.1</ele>
        <time>2012-08-14T07:21:31Z</time>
      </trkpt>
      <trkpt lat="45.12274" lon="5.62202">
        <ele>1570.8</ele>
        <time>2012-08-14T07:21:51Z</time>
      </trkpt>
      <trkpt lat="45.12279" lon="5.62215">
        <ele>1574.3</ele>
        <time>2012-08-14T07:22:11Z</time>
      </trkpt>
      <trkpt lat="45.12284" lon="5.6223">
        <ele>1578.1</ele>
        <time>2012-08-14T07:22:30Z</time>
      </trkpt>
      <trkpt lat="45.12289" lon="5.62245">
        <ele>1582.3</ele>
        <time>2012-08-14T07:22:51Z</time>
      </trkpt>
      <trkpt lat="45.12293" lon="5.62256">
        <ele>1584.6</ele>
        <time>2012-08-14T07:23:15Z</time>
      </trkpt>
      <trkpt lat="45.123" lon="5.62282">
        <ele>1588.9</ele>
        <time>2012-08-14T07:23:37Z</time>
      </trkpt>
      <trkpt lat="45.12313" lon="5.62293">
        <ele>1590.4</ele>
        <time>2012-08-14T07:25:09Z</time>
      </trkpt>
      <trkpt lat="45.12321" lon="5.62293">
        <ele>1590</ele>
        <time>2012-08-14T07:28:01Z</time>
      </trkpt>
      <trkpt lat="45.12326" lon="5.62297">
        <ele>1590.5</ele>
        <time>2012-08-14T07:28:18Z</time>
      </trkpt>
      <trkpt lat="45.12343" lon="5.62294">
        <ele>1589.4</ele>
        <time>2012-08-14T07:28:31Z</time>
      </trkpt>
      <trkpt lat="45.12366" lon="5.62288">
        <ele>1588.5</ele>
        <time>2012-08-14T07:28:48Z</time>
      </trkpt>
      <trkpt lat="45.12385" lon="5.62281">
        <ele>1587.3</ele>
        <time>2012-08-14T07:28:55Z</time>
      </trkpt>
      <trkpt lat="45.12408" lon="5.62278">
        <ele>1586.9</ele>
        <time>2012-08-14T07:29:00Z</time>
      </trkpt>
      <trkpt lat="45.12436" lon="5.62297">
        <ele>1592.7</ele>
        <time>2012-08-14T07:29:13Z</time>
      </trkpt>
      <trkpt lat="45.1246" lon="5.62313">
        <ele>1597.5</ele>
        <time>2012-08-14T07:29:29Z</time>
      </trkpt>
      <trkpt lat="45.12485" lon="5.62324">
        <ele>1601</ele>
        <time>2012-08-14T07:29:44Z</time>
      </trkpt>
      <trkpt lat="45.12508" lon="5.62334">
        <ele>1604.1</ele>
        <time>2012-08-14T07:29:59Z</time>
      </trkpt>
      <trkpt lat="45.12532" lon="5.62341">
        <ele>1608</ele>
        <time>2012-08-14T07:30:19Z</time>
      </trkpt>
      <trkpt lat="45.12537" lon="5.62344">
        <ele>1608.8</ele>
        <time>2012-08-14T07:30:22Z</time>
      </trkpt>
      <trkpt lat="45.12559" lon="5.62344">
        <ele>1611.9</ele>
        <time>2012-08-14T07:30:38Z</time>
      </trkpt>
      <trkpt lat="45.12565" lon="5.62339">
        <ele>1612.6</ele>
        <time>2012-08-14T07:30:43Z</time>
      </trkpt>
      <trkpt lat="45.12571" lon="5.62336">
        <ele>1613.4</ele>
        <time>2012-08-14T07:30:54Z</time>
      </trkpt>
      <trkpt lat="45.12588" lon="5.62335">
        <ele>1615.3</ele>
        <time>2012-08-14T07:31:04Z</time>
      </trkpt>
      <trkpt lat="45.12611" lon="5.62337">
        <ele>1616.8</ele>
        <time>2012-08-14T07:31:22Z</time>
      </trkpt>
      <trkpt lat="45.12636" lon="5.62326">
        <ele>1617.9</ele>
        <time>2012-08-14T07:31:38Z</time>
      </trkpt>
      <trkpt lat="45.12666" lon="5.62314">
        <ele>1619.7</ele>
        <time>2012-08-14T07:31:56Z</time>
      </trkpt>
      <trkpt lat="45.12689" lon="5.62342">
        <ele>1622.3</ele>
        <time>2012-08-14T07:32:14Z</time>
      </trkpt>
      <trkpt lat="45.12703" lon="5.6236">
        <ele>1624.2</ele>
        <time>2012-08-14T07:32:24Z</time>
      </trkpt>
      <trkpt lat="45.12715" lon="5.62369">
        <ele>1625.5</ele>
        <time>2012-08-14T07:32:32Z</time>
      </trkpt>
      <trkpt lat="45.12724" lon="5.62369">
        <ele>1626.2</ele>
        <time>2012-08-14T07:32:37Z</time>
      </trkpt>
      <trkpt lat="45.12739" lon="5.62364">
        <ele>1627.2</ele>
        <time>2012-08-14T07:32:48Z</time>
      </trkpt>
      <trkpt lat="45.12744" lon="5.6236">
        <ele>1627.5</ele>
        <time>2012-08-14T07:33:44Z</time>
      </trkpt>
      <trkpt lat="45.12785" lon="5.62338">
        <ele>1634.3</ele>
        <time>2012-08-14T07:35:19Z</time>
      </trkpt>
      <trkpt lat="45.12869" lon="5.62361">
        <ele>1647.9</ele>
        <time>2012-08-14T07:36:02Z</time>
      </trkpt>
      <trkpt lat="45.12899" lon="5.62409">
        <ele>1652.4</ele>
        <time>2012-08-14T07:45:28Z</time>
      </trkpt>
      <trkpt lat="45.12911" lon="5.62437">
        <ele>1655.6</ele>
        <time>2012-08-14T07:45:34Z</time>
      </trkpt>
      <trkpt lat="45.12914" lon="5.62443">
        <ele>1656.5</ele>
        <time>2012-08-14T07:45:38Z</time>
      </trkpt>
      <trkpt lat="45.12926" lon="5.62469">
        <ele>1659.6</ele>
        <time>2012-08-14T07:45:58Z</time>
      </trkpt>
      <trkpt lat="45.12942" lon="5.62502">
        <ele>1663.5</ele>
        <time>2012-08-14T07:46:20Z</time>
      </trkpt>
      <trkpt lat="45.12961" lon="5.62532">
        <ele>1666.4</ele>
        <time>2012-08-14T07:46:40Z</time>
      </trkpt>
      <trkpt lat="45.1299" lon="5.62553">
        <ele>1669.5</ele>
        <time>2012-08-14T07:47:01Z</time>
      </trkpt>
      <trkpt lat="45.13021" lon="5.62573">
        <ele>1673.1</ele>
        <time>2012-08-14T07:47:22Z</time>
      </trkpt>
      <trkpt lat="45.13052" lon="5.62594">
        <ele>1677</ele>
        <time>2012-08-14T07:47:45Z</time>
      </trkpt>
      <trkpt lat="45.13076" lon="5.62611">
        <ele>1679.7</ele>
        <time>2012-08-14T07:48:05Z</time>
      </trkpt>
      <trkpt lat="45.13086" lon="5.62618">
        <ele>1680.8</ele>
        <time>2012-08-14T07:48:32Z</time>
      </trkpt>
      <trkpt lat="45.13098" lon="5.62629">
        <ele>1682.7</ele>
        <time>2012-08-14T07:48:47Z</time>
      </trkpt>
      <trkpt lat="45.13103" lon="5.62633">
        <ele>1683.4</ele>
        <time>2012-08-14T07:48:51Z</time>
      </trkpt>
      <trkpt lat="45.1312" lon="5.62643">
        <ele>1686</ele>
        <time>2012-08-14T07:49:10Z</time>
      </trkpt>
      <trkpt lat="45.1314" lon="5.62655">
        <ele>1689</ele>
        <time>2012-08-14T07:49:26Z</time>
      </trkpt>
      <trkpt lat="45.13146" lon="5.62658">
        <ele>1689.9</ele>
        <time>2012-08-14T07:49:31Z</time>
      </trkpt>
      <trkpt lat="45.13158" lon="5.62661">
        <ele>1691.7</ele>
        <time>2012-08-14T07:49:47Z</time>
      </trkpt>
      <trkpt lat="45.13172" lon="5.62659">
        <ele>1693.4</ele>
        <time>2012-08-14T07:49:53Z</time>
      </trkpt>
      <trkpt lat="45.13203" lon="5.62637">
        <ele>1695.3</ele>
        <time>2012-08-14T07:50:20Z</time>
      </trkpt>
      <trkpt lat="45.13224" lon="5.62625">
        <ele>1696.3</ele>
        <time>2012-08-14T07:50:43Z</time>
      </trkpt>
      <trkpt lat="45.13245" lon="5.62619">
        <ele>1697.4</ele>
        <time>2012-08-14T07:50:55Z</time>
      </trkpt>
      <trkpt lat="45.13256" lon="5.62618">
        <ele>1698</ele>
        <time>2012-08-14T07:51:04Z</time>
      </trkpt>
      <trkpt lat="45.13286" lon="5.62618">
        <ele>1699.5</ele>
        <time>2012-08-14T07:51:22Z</time>
      </trkpt>
      <trkpt lat="45.13312" lon="5.62619">
        <ele>1700.9</ele>
        <time>2012-08-14T07:51:38Z</time>
      </trkpt>
      <trkpt lat="45.13349" lon="5.62626">
        <ele>1702.4</ele>
        <time>2012-08-14T07:51:55Z</time>
      </trkpt>
      <trkpt lat="45.13395" lon="5.62645">
        <ele>1704.1</ele>
        <time>2012-08-14T07:52:16Z</time>
      </trkpt>
      <trkpt lat="45.13409" lon="5.62653">
        <ele>1705.2</ele>
        <time>2012-08-14T07:52:23Z</time>
      </trkpt>
      <trkpt lat="45.13438" lon="5.62677">
        <ele>1705.7</ele>
        <time>2012-08-14T07:52:39Z</time>
      </trkpt>
      <trkpt lat="45.13465" lon="5.62707">
        <ele>1704.6</ele>
        <time>2012-08-14T07:52:59Z</time>
      </trkpt>
      <trkpt lat="45.1348" lon="5.62754">
        <ele>1704.9</ele>
        <time>2012-08-14T07:53:20Z</time>
      </trkpt>
      <trkpt lat="45.13486" lon="5.62803">
        <ele>1705.4</ele>
        <time>2012-08-14T07:53:39Z</time>
      </trkpt>
      <trkpt lat="45.13488" lon="5.62856">
        <ele>1709.3</ele>
        <time>2012-08-14T07:53:57Z</time>
      </trkpt>
      <trkpt lat="45.1349" lon="5.62875">
        <ele>1711.5</ele>
        <time>2012-08-14T07:54:00Z</time>
      </trkpt>
      <trkpt lat="45.13496" lon="5.62909">
        <ele>1715.5</ele>
        <time>2012-08-14T07:54:05Z</time>
      </trkpt>
      <trkpt lat="45.13503" lon="5.62937">
        <ele>1714.9</ele>
        <time>2012-08-14T07:54:08Z</time>
      </trkpt>
      <trkpt lat="45.13516" lon="5.62959">
        <ele>1711</ele>
        <time>2012-08-14T07:54:14Z</time>
      </trkpt>
      <trkpt lat="45.13507" lon="5.62975">
        <ele>1714</ele>
        <time>2012-08-14T07:54:15Z</time>
      </trkpt>
      <trkpt lat="45.1351" lon="5.63011">
        <ele>1715.3</ele>
        <time>2012-08-14T07:54:31Z</time>
      </trkpt>
      <trkpt lat="45.13532" lon="5.63052">
        <ele>1717.8</ele>
        <time>2012-08-14T07:54:52Z</time>
      </trkpt>
      <trkpt lat="45.13558" lon="5.63075">
        <ele>1719.4</ele>
        <time>2012-08-14T07:55:11Z</time>
      </trkpt>
      <trkpt lat="45.13579" lon="5.63092">
        <ele>1722</ele>
        <time>2012-08-14T07:55:28Z</time>
      </trkpt>
      <trkpt lat="45.13606" lon="5.63111">
        <ele>1723.4</ele>
        <time>2012-08-14T07:55:50Z</time>
      </trkpt>
      <trkpt lat="45.13629" lon="5.63128">
        <ele>1724.4</ele>
        <time>2012-08-14T07:56:10Z</time>
      </trkpt>
      <trkpt lat="45.13646" lon="5.63143">
        <ele>1726.3</ele>
        <time>2012-08-14T07:56:27Z</time>
      </trkpt>
      <trkpt lat="45.1365" lon="5.63147">
        <ele>1726.7</ele>
        <time>2012-08-14T07:56:31Z</time>
      </trkpt>
      <trkpt lat="45.13664" lon="5.63162">
        <ele>1729.2</ele>
        <time>2012-08-14T07:56:46Z</time>
      </trkpt>
      <trkpt lat="45.1368" lon="5.63189">
        <ele>1734.7</ele>
        <time>2012-08-14T07:57:11Z</time>
      </trkpt>
      <trkpt lat="45.13702" lon="5.63227">
        <ele>1742.3</ele>
        <time>2012-08-14T07:57:36Z</time>
      </trkpt>
      <trkpt lat="45.13715" lon="5.63247">
        <ele>1744.8</ele>
        <time>2012-08-14T07:58:44Z</time>
      </trkpt>
      <trkpt lat="45.1374" lon="5.63281">
        <ele>1748.5</ele>
        <time>2012-08-14T07:59:02Z</time>
      </trkpt>
      <trkpt lat="45.13763" lon="5.63305">
        <ele>1751.3</ele>
        <time>2012-08-14T07:59:22Z</time>
      </trkpt>
      <trkpt lat="45.13778" lon="5.63323">
        <ele>1754.6</ele>
        <time>2012-08-14T07:59:38Z</time>
      </trkpt>
      <trkpt lat="45.138" lon="5.63347">
        <ele>1757.3</ele>
        <time>2012-08-14T08:00:00Z</time>
      </trkpt>
      <trkpt lat="45.13817" lon="5.63363">
        <ele>1758</ele>
        <time>2012-08-14T08:00:21Z</time>
      </trkpt>
      <trkpt lat="45.1384" lon="5.63378">
        <ele>1757.9</ele>
        <time>2012-08-14T08:00:37Z</time>
      </trkpt>
      <trkpt lat="45.13857" lon="5.63395">
        <ele>1760.1</ele>
        <time>2012-08-14T08:01:15Z</time>
      </trkpt>
      <trkpt lat="45.13867" lon="5.63404">
        <ele>1761.4</ele>
        <time>2012-08-14T08:01:28Z</time>
      </trkpt>
      <trkpt lat="45.13892" lon="5.63429">
        <ele>1764.3</ele>
        <time>2012-08-14T08:01:46Z</time>
      </trkpt>
      <trkpt lat="45.13915" lon="5.63451">
        <ele>1768.2</ele>
        <time>2012-08-14T08:02:10Z</time>
      </trkpt>
      <trkpt lat="45.13931" lon="5.63461">
        <ele>1769.4</ele>
        <time>2012-08-14T08:02:27Z</time>
      </trkpt>
      <trkpt lat="45.13958" lon="5.63477">
        <ele>1771.1</ele>
        <time>2012-08-14T08:03:28Z</time>
      </trkpt>
      <trkpt lat="45.13984" lon="5.63493">
        <ele>1773.4</ele>
        <time>2012-08-14T08:03:43Z</time>
      </trkpt>
      <trkpt lat="45.13994" lon="5.63525">
        <ele>1780.5</ele>
        <time>2012-08-14T08:04:02Z</time>
      </trkpt>
      <trkpt lat="45.1402" lon="5.63539">
        <ele>1783.5</ele>
        <time>2012-08-14T08:04:24Z</time>
      </trkpt>
      <trkpt lat="45.14045" lon="5.6356">
        <ele>1787.4</ele>
        <time>2012-08-14T08:04:45Z</time>
      </trkpt>
      <trkpt lat="45.14056" lon="5.63573">
        <ele>1789.8</ele>
        <time>2012-08-14T08:04:55Z</time>
      </trkpt>
      <trkpt lat="45.14081" lon="5.63597">
        <ele>1784.2</ele>
        <time>2012-08-14T08:05:18Z</time>
      </trkpt>
      <trkpt lat="45.14106" lon="5.63614">
        <ele>1782.2</ele>
        <time>2012-08-14T08:05:40Z</time>
      </trkpt>
      <trkpt lat="45.14139" lon="5.63627">
        <ele>1791.2</ele>
        <time>2012-08-14T08:06:06Z</time>
      </trkpt>
      <trkpt lat="45.14171" lon="5.63639">
        <ele>1805.1</ele>
        <time>2012-08-14T08:06:26Z</time>
      </trkpt>
      <trkpt lat="45.14199" lon="5.6365">
        <ele>1807.1</ele>
        <time>2012-08-14T08:06:44Z</time>
      </trkpt>
      <trkpt lat="45.1423" lon="5.63663">
        <ele>1809.8</ele>
        <time>2012-08-14T08:07:05Z</time>
      </trkpt>
      <trkpt lat="45.14248" lon="5.63673">
        <ele>1812.6</ele>
        <time>2012-08-14T08:07:21Z</time>
      </trkpt>
      <trkpt lat="45.14273" lon="5.63689">
        <ele>1815.4</ele>
        <time>2012-08-14T08:07:42Z</time>
      </trkpt>
      <trkpt lat="45.14298" lon="5.63707">
        <ele>1818.7</ele>
        <time>2012-08-14T08:08:05Z</time>
      </trkpt>
      <trkpt lat="45.14329" lon="5.63726">
        <ele>1821.2</ele>
        <time>2012-08-14T08:08:31Z</time>
      </trkpt>
      <trkpt lat="45.14356" lon="5.6374">
        <ele>1823</ele>
        <time>2012-08-14T08:08:54Z</time>
      </trkpt>
      <trkpt lat="45.14382" lon="5.63756">
        <ele>1824.4</ele>
        <time>2012-08-14T08:09:16Z</time>
      </trkpt>
      <trkpt lat="45.14408" lon="5.63774">
        <ele>1825</ele>
        <time>2012-08-14T08:09:37Z</time>
      </trkpt>
      <trkpt lat="45.14436" lon="5.63793">
        <ele>1829.2</ele>
        <time>2012-08-14T08:10:00Z</time>
      </trkpt>
      <trkpt lat="45.14457" lon="5.63811">
        <ele>1834.1</ele>
        <time>2012-08-14T08:10:17Z</time>
      </trkpt>
      <trkpt lat="45.14483" lon="5.63813">
        <ele>1836.1</ele>
        <time>2012-08-14T08:10:57Z</time>
      </trkpt>
      <trkpt lat="45.14495" lon="5.63813">
        <ele>1836.9</ele>
        <time>2012-08-14T08:11:57Z</time>
      </trkpt>
      <trkpt lat="45.14528" lon="5.63809">
        <ele>1841.5</ele>
        <time>2012-08-14T08:12:18Z</time>
      </trkpt>
      <trkpt lat="45.14563" lon="5.63796">
        <ele>1843.9</ele>
        <time>2012-08-14T08:12:44Z</time>
      </trkpt>
      <trkpt lat="45.1459" lon="5.63792">
        <ele>1846.3</ele>
        <time>2012-08-14T08:13:03Z</time>
      </trkpt>
      <trkpt lat="45.14617" lon="5.63795">
        <ele>1848.4</ele>
        <time>2012-08-14T08:13:23Z</time>
      </trkpt>
      <trkpt lat="45.14645" lon="5.63801">
        <ele>1851.8</ele>
        <time>2012-08-14T08:13:45Z</time>
      </trkpt>
      <trkpt lat="45.14673" lon="5.63809">
        <ele>1855</ele>
        <time>2012-08-14T08:14:06Z</time>
      </trkpt>
      <trkpt lat="45.14699" lon="5.63818">
        <ele>1854.8</ele>
        <time>2012-08-14T08:14:26Z</time>
      </trkpt>
      <trkpt lat="45.14722" lon="5.63831">
        <ele>1856.4</ele>
        <time>2012-08-14T08:14:46Z</time>
      </trkpt>
      <trkpt lat="45.14748" lon="5.63854">
        <ele>1859.2</ele>
        <time>2012-08-14T08:15:07Z</time>
      </trkpt>
      <trkpt lat="45.14759" lon="5.63865">
        <ele>1861.8</ele>
        <time>2012-08-14T08:17:24Z</time>
      </trkpt>
      <trkpt lat="45.14784" lon="5.63884">
        <ele>1864.6</ele>
        <time>2012-08-14T08:17:42Z</time>
      </trkpt>
      <trkpt lat="45.1481" lon="5.63902">
        <ele>1866</ele>
        <time>2012-08-14T08:20:29Z</time>
      </trkpt>
      <trkpt lat="45.14841" lon="5.6391">
        <ele>1864.1</ele>
        <time>2012-08-14T08:20:36Z</time>
      </trkpt>
      <trkpt lat="45.14848" lon="5.63917">
        <ele>1865.5</ele>
        <time>2012-08-14T08:20:38Z</time>
      </trkpt>
      <trkpt lat="45.14863" lon="5.63933">
        <ele>1865</ele>
        <time>2012-08-14T08:20:43Z</time>
      </trkpt>
      <trkpt lat="45.14874" lon="5.63944">
        <ele>1864.4</ele>
        <time>2012-08-14T08:20:52Z</time>
      </trkpt>
      <trkpt lat="45.14881" lon="5.63953">
        <ele>1863.9</ele>
        <time>2012-08-14T08:30:22Z</time>
      </trkpt>
      <trkpt lat="45.14883" lon="5.63916">
        <ele>1864.1</ele>
        <time>2012-08-14T08:31:01Z</time>
      </trkpt>
      <trkpt lat="45.14883" lon="5.63908">
        <ele>1862.8</ele>
        <time>2012-08-14T08:31:15Z</time>
      </trkpt>
      <trkpt lat="45.14881" lon="5.63896">
        <ele>1860.6</ele>
        <time>2012-08-14T08:31:46Z</time>
      </trkpt>
      <trkpt lat="45.14883" lon="5.6391">
        <ele>1863.1</ele>
        <time>2012-08-14T08:31:55Z</time>
      </trkpt>
      <trkpt lat="45.14881" lon="5.63901">
        <ele>1861.5</ele>
        <time>2012-08-14T08:32:01Z</time>
      </trkpt>
      <trkpt lat="45.14877" lon="5.63887">
        <ele>1858.9</ele>
        <time>2012-08-14T08:32:05Z</time>
      </trkpt>
      <trkpt lat="45.14875" lon="5.63881">
        <ele>1857.9</ele>
        <time>2012-08-14T08:32:08Z</time>
      </trkpt>
      <trkpt lat="45.1487" lon="5.63865">
        <ele>1854.8</ele>
        <time>2012-08-14T08:32:14Z</time>
      </trkpt>
      <trkpt lat="45.14869" lon="5.63857">
        <ele>1853.1</ele>
        <time>2012-08-14T08:32:18Z</time>
      </trkpt>
      <trkpt lat="45.14872" lon="5.63839">
        <ele>1849.9</ele>
        <time>2012-08-14T08:32:27Z</time>
      </trkpt>
      <trkpt lat="45.14874" lon="5.63837">
        <ele>1849.6</ele>
        <time>2012-08-14T08:32:28Z</time>
      </trkpt>
      <trkpt lat="45.14897" lon="5.63816">
        <ele>1847.9</ele>
        <time>2012-08-14T08:32:36Z</time>
      </trkpt>
      <trkpt lat="45.14901" lon="5.63813">
        <ele>1847.9</ele>
        <time>2012-08-14T08:32:37Z</time>
      </trkpt>
      <trkpt lat="45.1491" lon="5.63806">
        <ele>1848</ele>
        <time>2012-08-14T08:32:39Z</time>
      </trkpt>
      <trkpt lat="45.14914" lon="5.63803">
        <ele>1848.1</ele>
        <time>2012-08-14T08:32:40Z</time>
      </trkpt>
      <trkpt lat="45.14953" lon="5.63764">
        <ele>1843.2</ele>
        <time>2012-08-14T08:32:52Z</time>
      </trkpt>
      <trkpt lat="45.14958" lon="5.63764">
        <ele>1843.1</ele>
        <time>2012-08-14T08:32:54Z</time>
      </trkpt>
      <trkpt lat="45.14971" lon="5.63762">
        <ele>1843</ele>
        <time>2012-08-14T08:32:59Z</time>
      </trkpt>
      <trkpt lat="45.15003" lon="5.63751">
        <ele>1843.3</ele>
        <time>2012-08-14T08:33:10Z</time>
      </trkpt>
      <trkpt lat="45.15015" lon="5.6375">
        <ele>1840.7</ele>
        <time>2012-08-14T08:33:13Z</time>
      </trkpt>
      <trkpt lat="45.15026" lon="5.63741">
        <ele>1836.5</ele>
        <time>2012-08-14T08:33:17Z</time>
      </trkpt>
      <trkpt lat="45.15049" lon="5.6372">
        <ele>1828.8</ele>
        <time>2012-08-14T08:33:31Z</time>
      </trkpt>
      <trkpt lat="45.15064" lon="5.63712">
        <ele>1825.8</ele>
        <time>2012-08-14T08:35:52Z</time>
      </trkpt>
      <trkpt lat="45.15059" lon="5.63714">
        <ele>1826.6</ele>
        <time>2012-08-14T08:35:54Z</time>
      </trkpt>
      <trkpt lat="45.15038" lon="5.63728">
        <ele>1832</ele>
        <time>2012-08-14T08:36:07Z</time>
      </trkpt>
      <trkpt lat="45.15032" lon="5.63723">
        <ele>1832</ele>
        <time>2012-08-14T08:36:11Z</time>
      </trkpt>
      <trkpt lat="45.1503" lon="5.63726">
        <ele>1832.9</ele>
        <time>2012-08-14T08:36:23Z</time>
      </trkpt>
      <trkpt lat="45.15029" lon="5.63733">
        <ele>1834.4</ele>
        <time>2012-08-14T08:36:27Z</time>
      </trkpt>
      <trkpt lat="45.15006" lon="5.6375">
        <ele>1842.6</ele>
        <time>2012-08-14T08:36:40Z</time>
      </trkpt>
      <trkpt lat="45.14976" lon="5.63757">
        <ele>1843.1</ele>
        <time>2012-08-14T08:36:54Z</time>
      </trkpt>
      <trkpt lat="45.14959" lon="5.63769">
        <ele>1843.1</ele>
        <time>2012-08-14T08:37:01Z</time>
      </trkpt>
      <trkpt lat="45.14936" lon="5.63782">
        <ele>1844.6</ele>
        <time>2012-08-14T08:37:13Z</time>
      </trkpt>
      <trkpt lat="45.1493" lon="5.63786">
        <ele>1845.3</ele>
        <time>2012-08-14T08:37:16Z</time>
      </trkpt>
      <trkpt lat="45.14928" lon="5.6378">
        <ele>1845</ele>
        <time>2012-08-14T08:37:20Z</time>
      </trkpt>
      <trkpt lat="45.14915" lon="5.63772">
        <ele>1844.4</ele>
        <time>2012-08-14T08:37:27Z</time>
      </trkpt>
      <trkpt lat="45.14908" lon="5.63778">
        <ele>1844</ele>
        <time>2012-08-14T08:37:29Z</time>
      </trkpt>
      <trkpt lat="45.14881" lon="5.63781">
        <ele>1840.5</ele>
        <time>2012-08-14T08:37:34Z</time>
      </trkpt>
      <trkpt lat="45.14859" lon="5.63759">
        <ele>1832.8</ele>
        <time>2012-08-14T08:37:42Z</time>
      </trkpt>
      <trkpt lat="45.14851" lon="5.63749">
        <ele>1829</ele>
        <time>2012-08-14T08:37:45Z</time>
      </trkpt>
      <trkpt lat="45.1484" lon="5.63736">
        <ele>1823.1</ele>
        <time>2012-08-14T08:37:50Z</time>
      </trkpt>
      <trkpt lat="45.14827" lon="5.63733">
        <ele>1820.6</ele>
        <time>2012-08-14T08:37:54Z</time>
      </trkpt>
      <trkpt lat="45.14806" lon="5.63722">
        <ele>1816</ele>
        <time>2012-08-14T08:38:00Z</time>
      </trkpt>
      <trkpt lat="45.14806" lon="5.63718">
        <ele>1814.8</ele>
        <time>2012-08-14T08:38:01Z</time>
      </trkpt>
      <trkpt lat="45.14813" lon="5.63698">
        <ele>1809.2</ele>
        <time>2012-08-14T08:38:06Z</time>
      </trkpt>
      <trkpt lat="45.1482" lon="5.63682">
        <ele>1804.8</ele>
        <time>2012-08-14T08:38:10Z</time>
      </trkpt>
      <trkpt lat="45.14825" lon="5.63676">
        <ele>1803.4</ele>
        <time>2012-08-14T08:38:13Z</time>
      </trkpt>
      <trkpt lat="45.14831" lon="5.6367">
        <ele>1801.8</ele>
        <time>2012-08-14T08:38:16Z</time>
      </trkpt>
      <trkpt lat="45.14845" lon="5.63663">
        <ele>1801.7</ele>
        <time>2012-08-14T08:38:20Z</time>
      </trkpt>
      <trkpt lat="45.14865" lon="5.6365">
        <ele>1800.3</ele>
        <time>2012-08-14T08:38:24Z</time>
      </trkpt>
      <trkpt lat="45.14894" lon="5.63633">
        <ele>1797.3</ele>
        <time>2012-08-14T08:38:31Z</time>
      </trkpt>
      <trkpt lat="45.14914" lon="5.63619">
        <ele>1792.9</ele>
        <time>2012-08-14T08:38:37Z</time>
      </trkpt>
      <trkpt lat="45.14919" lon="5.63614">
        <ele>1791.1</ele>
        <time>2012-08-14T08:38:40Z</time>
      </trkpt>
      <trkpt lat="45.14926" lon="5.63608">
        <ele>1788</ele>
        <time>2012-08-14T08:38:44Z</time>
      </trkpt>
      <trkpt lat="45.14931" lon="5.63602">
        <ele>1785.3</ele>
        <time>2012-08-14T08:38:48Z</time>
      </trkpt>
      <trkpt lat="45.14939" lon="5.63593">
        <ele>1781.4</ele>
        <time>2012-08-14T08:38:53Z</time>
      </trkpt>
      <trkpt lat="45.1494" lon="5.63591">
        <ele>1780.6</ele>
        <time>2012-08-14T08:38:54Z</time>
      </trkpt>
      <trkpt lat="45.14944" lon="5.63587">
        <ele>1778.3</ele>
        <time>2012-08-14T08:39:26Z</time>
      </trkpt>
      <trkpt lat="45.14952" lon="5.63571">
        <ele>1772.2</ele>
        <time>2012-08-14T08:39:34Z</time>
      </trkpt>
      <trkpt lat="45.14953" lon="5.63567">
        <ele>1771</ele>
        <time>2012-08-14T08:39:36Z</time>
      </trkpt>
      <trkpt lat="45.14956" lon="5.63559">
        <ele>1768</ele>
        <time>2012-08-14T08:39:40Z</time>
      </trkpt>
      <trkpt lat="45.1496" lon="5.63553">
        <ele>1765.3</ele>
        <time>2012-08-14T08:39:45Z</time>
      </trkpt>
      <trkpt lat="45.14968" lon="5.6354">
        <ele>1760.2</ele>
        <time>2012-08-14T08:39:51Z</time>
      </trkpt>
      <trkpt lat="45.14975" lon="5.63536">
        <ele>1758.6</ele>
        <time>2012-08-14T08:39:56Z</time>
      </trkpt>
      <trkpt lat="45.15002" lon="5.63526">
        <ele>1753.2</ele>
        <time>2012-08-14T08:40:08Z</time>
      </trkpt>
      <trkpt lat="45.15009" lon="5.63526">
        <ele>1753.1</ele>
        <time>2012-08-14T08:40:11Z</time>
      </trkpt>
      <trkpt lat="45.15014" lon="5.63525">
        <ele>1752.6</ele>
        <time>2012-08-14T08:40:13Z</time>
      </trkpt>
      <trkpt lat="45.15019" lon="5.63522">
        <ele>1751.5</ele>
        <time>2012-08-14T08:40:15Z</time>
      </trkpt>
      <trkpt lat="45.1503" lon="5.63517">
        <ele>1748.8</ele>
        <time>2012-08-14T08:40:21Z</time>
      </trkpt>
      <trkpt lat="45.15037" lon="5.63513">
        <ele>1747</ele>
        <time>2012-08-14T08:40:26Z</time>
      </trkpt>
      <trkpt lat="45.15041" lon="5.63511">
        <ele>1746</ele>
        <time>2012-08-14T08:40:29Z</time>
      </trkpt>
      <trkpt lat="45.15051" lon="5.63505">
        <ele>1743.1</ele>
        <time>2012-08-14T08:40:35Z</time>
      </trkpt>
      <trkpt lat="45.15067" lon="5.63498">
        <ele>1739.3</ele>
        <time>2012-08-14T08:40:43Z</time>
      </trkpt>
      <trkpt lat="45.15074" lon="5.63496">
        <ele>1738.4</ele>
        <time>2012-08-14T08:40:47Z</time>
      </trkpt>
      <trkpt lat="45.15086" lon="5.63493">
        <ele>1736.6</ele>
        <time>2012-08-14T08:40:52Z</time>
      </trkpt>
      <trkpt lat="45.15117" lon="5.63489">
        <ele>1731.1</ele>
        <time>2012-08-14T08:41:01Z</time>
      </trkpt>
      <trkpt lat="45.15136" lon="5.63484">
        <ele>1726.6</ele>
        <time>2012-08-14T08:41:06Z</time>
      </trkpt>
      <trkpt lat="45.15152" lon="5.63482">
        <ele>1723.9</ele>
        <time>2012-08-14T08:41:10Z</time>
      </trkpt>
      <trkpt lat="45.1516" lon="5.6348">
        <ele>1722.6</ele>
        <time>2012-08-14T08:41:12Z</time>
      </trkpt>
      <trkpt lat="45.1518" lon="5.63481">
        <ele>1718.4</ele>
        <time>2012-08-14T08:41:16Z</time>
      </trkpt>
      <trkpt lat="45.1519" lon="5.63482">
        <ele>1716.3</ele>
        <time>2012-08-14T08:41:18Z</time>
      </trkpt>
      <trkpt lat="45.15228" lon="5.63494">
        <ele>1710.3</ele>
        <time>2012-08-14T08:41:25Z</time>
      </trkpt>
      <trkpt lat="45.15238" lon="5.63501">
        <ele>1709.7</ele>
        <time>2012-08-14T08:41:27Z</time>
      </trkpt>
      <trkpt lat="45.15274" lon="5.63528">
        <ele>1705.1</ele>
        <time>2012-08-14T08:41:33Z</time>
      </trkpt>
      <trkpt lat="45.15286" lon="5.63535">
        <ele>1701.8</ele>
        <time>2012-08-14T08:41:37Z</time>
      </trkpt>
      <trkpt lat="45.15297" lon="5.63539">
        <ele>1698.2</ele>
        <time>2012-08-14T08:41:46Z</time>
      </trkpt>
      <trkpt lat="45.15304" lon="5.63541">
        <ele>1695.3</ele>
        <time>2012-08-14T08:41:50Z</time>
      </trkpt>
      <trkpt lat="45.15314" lon="5.63543">
        <ele>1691.2</ele>
        <time>2012-08-14T08:41:54Z</time>
      </trkpt>
      <trkpt lat="45.15322" lon="5.63543">
        <ele>1688.1</ele>
        <time>2012-08-14T08:41:57Z</time>
      </trkpt>
      <trkpt lat="45.15328" lon="5.63543">
        <ele>1685.6</ele>
        <time>2012-08-14T08:42:00Z</time>
      </trkpt>
      <trkpt lat="45.1534" lon="5.6354">
        <ele>1681.2</ele>
        <time>2012-08-14T08:42:06Z</time>
      </trkpt>
      <trkpt lat="45.15356" lon="5.63531">
        <ele>1676.3</ele>
        <time>2012-08-14T08:42:11Z</time>
      </trkpt>
      <trkpt lat="45.15371" lon="5.63518">
        <ele>1672.9</ele>
        <time>2012-08-14T08:42:16Z</time>
      </trkpt>
      <trkpt lat="45.1538" lon="5.6351">
        <ele>1671.5</ele>
        <time>2012-08-14T08:42:19Z</time>
      </trkpt>
      <trkpt lat="45.154" lon="5.635">
        <ele>1668</ele>
        <time>2012-08-14T08:42:24Z</time>
      </trkpt>
      <trkpt lat="45.15405" lon="5.635">
        <ele>1666.8</ele>
        <time>2012-08-14T08:42:25Z</time>
      </trkpt>
      <trkpt lat="45.15416" lon="5.63497">
        <ele>1663.7</ele>
        <time>2012-08-14T08:42:27Z</time>
      </trkpt>
      <trkpt lat="45.15439" lon="5.63483">
        <ele>1658.5</ele>
        <time>2012-08-14T08:42:32Z</time>
      </trkpt>
      <trkpt lat="45.15461" lon="5.63468">
        <ele>1653.5</ele>
        <time>2012-08-14T08:42:38Z</time>
      </trkpt>
      <trkpt lat="45.15475" lon="5.63461">
        <ele>1650.8</ele>
        <time>2012-08-14T08:42:42Z</time>
      </trkpt>
      <trkpt lat="45.15488" lon="5.63459">
        <ele>1649</ele>
        <time>2012-08-14T08:42:46Z</time>
      </trkpt>
      <trkpt lat="45.15499" lon="5.63459">
        <ele>1647.7</ele>
        <time>2012-08-14T08:42:50Z</time>
      </trkpt>
      <trkpt lat="45.15508" lon="5.63459">
        <ele>1645.2</ele>
        <time>2012-08-14T08:42:53Z</time>
      </trkpt>
      <trkpt lat="45.15526" lon="5.63458">
        <ele>1639.7</ele>
        <time>2012-08-14T08:42:57Z</time>
      </trkpt>
      <trkpt lat="45.15554" lon="5.63463">
        <ele>1632.3</ele>
        <time>2012-08-14T08:43:06Z</time>
      </trkpt>
      <trkpt lat="45.15567" lon="5.63461">
        <ele>1628.3</ele>
        <time>2012-08-14T08:43:10Z</time>
      </trkpt>
      <trkpt lat="45.15574" lon="5.6346">
        <ele>1625.9</ele>
        <time>2012-08-14T08:43:12Z</time>
      </trkpt>
      <trkpt lat="45.156" lon="5.63462">
        <ele>1618.8</ele>
        <time>2012-08-14T08:43:19Z</time>
      </trkpt>
      <trkpt lat="45.1562" lon="5.63469">
        <ele>1614.9</ele>
        <time>2012-08-14T08:43:24Z</time>
      </trkpt>
      <trkpt lat="45.15636" lon="5.63485">
        <ele>1614.4</ele>
        <time>2012-08-14T08:43:28Z</time>
      </trkpt>
      <trkpt lat="45.15638" lon="5.63499">
        <ele>1617.3</ele>
        <time>2012-08-14T08:44:09Z</time>
      </trkpt>
      <trkpt lat="45.15636" lon="5.63506">
        <ele>1616.9</ele>
        <time>2012-08-14T08:44:13Z</time>
      </trkpt>
      <trkpt lat="45.1563" lon="5.63506">
        <ele>1618.4</ele>
        <time>2012-08-14T08:44:16Z</time>
      </trkpt>
      <trkpt lat="45.15625" lon="5.63505">
        <ele>1619.7</ele>
        <time>2012-08-14T08:44:18Z</time>
      </trkpt>
      <trkpt lat="45.15619" lon="5.63504">
        <ele>1621.2</ele>
        <time>2012-08-14T08:44:20Z</time>
      </trkpt>
      <trkpt lat="45.15603" lon="5.63502">
        <ele>1625.4</ele>
        <time>2012-08-14T08:44:25Z</time>
      </trkpt>
      <trkpt lat="45.15589" lon="5.63502">
        <ele>1628.5</ele>
        <time>2012-08-14T08:44:29Z</time>
      </trkpt>
      <trkpt lat="45.15577" lon="5.63507">
        <ele>1631.1</ele>
        <time>2012-08-14T08:44:33Z</time>
      </trkpt>
      <trkpt lat="45.15573" lon="5.63514">
        <ele>1631.2</ele>
        <time>2012-08-14T08:44:35Z</time>
      </trkpt>
      <trkpt lat="45.15584" lon="5.63534">
        <ele>1626.1</ele>
        <time>2012-08-14T08:44:42Z</time>
      </trkpt>
      <trkpt lat="45.15595" lon="5.63546">
        <ele>1621.7</ele>
        <time>2012-08-14T08:44:46Z</time>
      </trkpt>
      <trkpt lat="45.15603" lon="5.63562">
        <ele>1617.3</ele>
        <time>2012-08-14T08:44:49Z</time>
      </trkpt>
      <trkpt lat="45.15606" lon="5.63605">
        <ele>1611</ele>
        <time>2012-08-14T08:44:58Z</time>
      </trkpt>
      <trkpt lat="45.15609" lon="5.63625">
        <ele>1607.8</ele>
        <time>2012-08-14T08:45:03Z</time>
      </trkpt>
      <trkpt lat="45.15613" lon="5.63639">
        <ele>1604.5</ele>
        <time>2012-08-14T08:45:07Z</time>
      </trkpt>
      <trkpt lat="45.1562" lon="5.6365">
        <ele>1601.2</ele>
        <time>2012-08-14T08:45:11Z</time>
      </trkpt>
      <trkpt lat="45.15628" lon="5.63652">
        <ele>1598.4</ele>
        <time>2012-08-14T08:45:16Z</time>
      </trkpt>
      <trkpt lat="45.15635" lon="5.63647">
        <ele>1596.7</ele>
        <time>2012-08-14T08:45:21Z</time>
      </trkpt>
      <trkpt lat="45.15639" lon="5.63645">
        <ele>1595.7</ele>
        <time>2012-08-14T08:47:41Z</time>
      </trkpt>
      <trkpt lat="45.15677" lon="5.63642">
        <ele>1584</ele>
        <time>2012-08-14T08:47:54Z</time>
      </trkpt>
      <trkpt lat="45.15696" lon="5.63659">
        <ele>1576.5</ele>
        <time>2012-08-14T08:48:03Z</time>
      </trkpt>
      <trkpt lat="45.15698" lon="5.63663">
        <ele>1575.4</ele>
        <time>2012-08-14T08:48:05Z</time>
      </trkpt>
      <trkpt lat="45.15708" lon="5.63677">
        <ele>1571.3</ele>
        <time>2012-08-14T08:48:12Z</time>
      </trkpt>
      <trkpt lat="45.15717" lon="5.6368">
        <ele>1568.6</ele>
        <time>2012-08-14T08:48:16Z</time>
      </trkpt>
      <trkpt lat="45.1572" lon="5.63682">
        <ele>1567.6</ele>
        <time>2012-08-14T08:48:18Z</time>
      </trkpt>
      <trkpt lat="45.15732" lon="5.63684">
        <ele>1564.1</ele>
        <time>2012-08-14T08:48:25Z</time>
      </trkpt>
      <trkpt lat="45.15735" lon="5.63684">
        <ele>1563</ele>
        <time>2012-08-14T08:48:28Z</time>
      </trkpt>
      <trkpt lat="45.1574" lon="5.63685">
        <ele>1561.7</ele>
        <time>2012-08-14T08:48:31Z</time>
      </trkpt>
      <trkpt lat="45.15748" lon="5.63687">
        <ele>1559.3</ele>
        <time>2012-08-14T08:48:35Z</time>
      </trkpt>
      <trkpt lat="45.15766" lon="5.63687">
        <ele>1555.8</ele>
        <time>2012-08-14T08:48:42Z</time>
      </trkpt>
      <trkpt lat="45.15778" lon="5.6369">
        <ele>1553.1</ele>
        <time>2012-08-14T08:48:46Z</time>
      </trkpt>
      <trkpt lat="45.158" lon="5.63695">
        <ele>1548.1</ele>
        <time>2012-08-14T08:49:14Z</time>
      </trkpt>
      <trkpt lat="45.15808" lon="5.63695">
        <ele>1546.6</ele>
        <time>2012-08-14T08:49:18Z</time>
      </trkpt>
      <trkpt lat="45.15818" lon="5.63695">
        <ele>1544.6</ele>
        <time>2012-08-14T08:49:24Z</time>
      </trkpt>
      <trkpt lat="45.1582" lon="5.63695">
        <ele>1544.2</ele>
        <time>2012-08-14T08:49:25Z</time>
      </trkpt>
      <trkpt lat="45.15834" lon="5.63693">
        <ele>1541.9</ele>
        <time>2012-08-14T08:49:30Z</time>
      </trkpt>
      <trkpt lat="45.15853" lon="5.63692">
        <ele>1537.8</ele>
        <time>2012-08-14T08:49:35Z</time>
      </trkpt>
      <trkpt lat="45.15867" lon="5.63697">
        <ele>1533.6</ele>
        <time>2012-08-14T08:49:39Z</time>
      </trkpt>
      <trkpt lat="45.15885" lon="5.63705">
        <ele>1528</ele>
        <time>2012-08-14T08:49:44Z</time>
      </trkpt>
      <trkpt lat="45.15898" lon="5.63708">
        <ele>1524.4</ele>
        <time>2012-08-14T08:49:47Z</time>
      </trkpt>
      <trkpt lat="45.15922" lon="5.63713">
        <ele>1517.5</ele>
        <time>2012-08-14T08:49:51Z</time>
      </trkpt>
      <trkpt lat="45.1596" lon="5.63724">
        <ele>1506.4</ele>
        <time>2012-08-14T08:49:57Z</time>
      </trkpt>
      <trkpt lat="45.1598" lon="5.63726">
        <ele>1501.7</ele>
        <time>2012-08-14T08:50:01Z</time>
      </trkpt>
      <trkpt lat="45.15982" lon="5.63725">
        <ele>1501.3</ele>
        <time>2012-08-14T08:50:16Z</time>
      </trkpt>
      <trkpt lat="45.15987" lon="5.63717">
        <ele>1500.7</ele>
        <time>2012-08-14T08:50:20Z</time>
      </trkpt>
      <trkpt lat="45.15988" lon="5.63713">
        <ele>1500.8</ele>
        <time>2012-08-14T08:50:22Z</time>
      </trkpt>
      <trkpt lat="45.15989" lon="5.63702">
        <ele>1501.3</ele>
        <time>2012-08-14T08:50:26Z</time>
      </trkpt>
      <trkpt lat="45.15982" lon="5.63677">
        <ele>1505.4</ele>
        <time>2012-08-14T08:50:36Z</time>
      </trkpt>
      <trkpt lat="45.15984" lon="5.63665">
        <ele>1505.3</ele>
        <time>2012-08-14T08:50:41Z</time>
      </trkpt>
      <trkpt lat="45.15982" lon="5.63647">
        <ele>1502.4</ele>
        <time>2012-08-14T08:50:48Z</time>
      </trkpt>
      <trkpt lat="45.15981" lon="5.63645">
        <ele>1502.2</ele>
        <time>2012-08-14T08:50:49Z</time>
      </trkpt>
      <trkpt lat="45.1598" lon="5.63637">
        <ele>1501.2</ele>
        <time>2012-08-14T08:50:53Z</time>
      </trkpt>
      <trkpt lat="45.15977" lon="5.63618">
        <ele>1498.8</ele>
        <time>2012-08-14T08:51:00Z</time>
      </trkpt>
      <trkpt lat="45.15977" lon="5.63601">
        <ele>1495.6</ele>
        <time>2012-08-14T08:51:28Z</time>
      </trkpt>
      <trkpt lat="45.15977" lon="5.63575">
        <ele>1490.9</ele>
        <time>2012-08-14T08:51:35Z</time>
      </trkpt>
      <trkpt lat="45.15973" lon="5.63557">
        <ele>1488.8</ele>
        <time>2012-08-14T08:51:40Z</time>
      </trkpt>
      <trkpt lat="45.15972" lon="5.63535">
        <ele>1484.5</ele>
        <time>2012-08-14T08:51:44Z</time>
      </trkpt>
      <trkpt lat="45.15971" lon="5.6351">
        <ele>1479.8</ele>
        <time>2012-08-14T08:51:49Z</time>
      </trkpt>
      <trkpt lat="45.15971" lon="5.6349">
        <ele>1475.3</ele>
        <time>2012-08-14T08:51:54Z</time>
      </trkpt>
      <trkpt lat="45.15971" lon="5.63473">
        <ele>1471.3</ele>
        <time>2012-08-14T08:51:58Z</time>
      </trkpt>
      <trkpt lat="45.15971" lon="5.63457">
        <ele>1467.6</ele>
        <time>2012-08-14T08:52:02Z</time>
      </trkpt>
      <trkpt lat="45.15972" lon="5.63443">
        <ele>1463.9</ele>
        <time>2012-08-14T08:52:06Z</time>
      </trkpt>
      <trkpt lat="45.15974" lon="5.6343">
        <ele>1460.1</ele>
        <time>2012-08-14T08:52:10Z</time>
      </trkpt>
      <trkpt lat="45.15977" lon="5.63416">
        <ele>1456.3</ele>
        <time>2012-08-14T08:52:15Z</time>
      </trkpt>
      <trkpt lat="45.15982" lon="5.63408">
        <ele>1452.5</ele>
        <time>2012-08-14T08:52:18Z</time>
      </trkpt>
      <trkpt lat="45.15988" lon="5.63401">
        <ele>1449.3</ele>
        <time>2012-08-14T08:52:21Z</time>
      </trkpt>
      <trkpt lat="45.16" lon="5.63393">
        <ele>1444.8</ele>
        <time>2012-08-14T08:52:25Z</time>
      </trkpt>
      <trkpt lat="45.1601" lon="5.63383">
        <ele>1440.5</ele>
        <time>2012-08-14T08:52:28Z</time>
      </trkpt>
      <trkpt lat="45.16023" lon="5.63372">
        <ele>1435.8</ele>
        <time>2012-08-14T08:52:41Z</time>
      </trkpt>
      <trkpt lat="45.16015" lon="5.6336">
        <ele>1434</ele>
        <time>2012-08-14T08:53:33Z</time>
      </trkpt>
      <trkpt lat="45.1601" lon="5.6335">
        <ele>1432</ele>
        <time>2012-08-14T08:53:37Z</time>
      </trkpt>
      <trkpt lat="45.15997" lon="5.63344">
        <ele>1431.9</ele>
        <time>2012-08-14T08:53:43Z</time>
      </trkpt>
      <trkpt lat="45.15988" lon="5.63338">
        <ele>1430.6</ele>
        <time>2012-08-14T08:53:46Z</time>
      </trkpt>
      <trkpt lat="45.15975" lon="5.63327">
        <ele>1427.2</ele>
        <time>2012-08-14T08:53:50Z</time>
      </trkpt>
      <trkpt lat="45.15959" lon="5.63319">
        <ele>1424.4</ele>
        <time>2012-08-14T08:53:54Z</time>
      </trkpt>
      <trkpt lat="45.15947" lon="5.6332">
        <ele>1425.1</ele>
        <time>2012-08-14T08:53:57Z</time>
      </trkpt>
      <trkpt lat="45.15934" lon="5.63317">
        <ele>1424.2</ele>
        <time>2012-08-14T08:54:00Z</time>
      </trkpt>
      <trkpt lat="45.15917" lon="5.63307">
        <ele>1421.1</ele>
        <time>2012-08-14T08:54:05Z</time>
      </trkpt>
      <trkpt lat="45.15911" lon="5.63303">
        <ele>1421.9</ele>
        <time>2012-08-14T08:54:07Z</time>
      </trkpt>
      <trkpt lat="45.159" lon="5.63285">
        <ele>1420.2</ele>
        <time>2012-08-14T08:54:15Z</time>
      </trkpt>
      <trkpt lat="45.15924" lon="5.63253">
        <ele>1400.7</ele>
        <time>2012-08-14T08:54:33Z</time>
      </trkpt>
      <trkpt lat="45.15911" lon="5.63257">
        <ele>1405.6</ele>
        <time>2012-08-14T08:56:40Z</time>
      </trkpt>
      <trkpt lat="45.15939" lon="5.63224">
        <ele>1392.6</ele>
        <time>2012-08-14T08:56:46Z</time>
      </trkpt>
      <trkpt lat="45.15914" lon="5.63184">
        <ele>1391.8</ele>
        <time>2012-08-14T08:56:52Z</time>
      </trkpt>
      <trkpt lat="45.15919" lon="5.63166">
        <ele>1387.1</ele>
        <time>2012-08-14T08:57:12Z</time>
      </trkpt>
      <trkpt lat="45.15928" lon="5.63166">
        <ele>1384.1</ele>
        <time>2012-08-14T08:57:23Z</time>
      </trkpt>
      <trkpt lat="45.15933" lon="5.6316">
        <ele>1382.5</ele>
        <time>2012-08-14T08:57:32Z</time>
      </trkpt>
      <trkpt lat="45.15946" lon="5.63158">
        <ele>1377.2</ele>
        <time>2012-08-14T08:57:52Z</time>
      </trkpt>
      <trkpt lat="45.15951" lon="5.63154">
        <ele>1375.3</ele>
        <time>2012-08-14T08:58:03Z</time>
      </trkpt>
      <trkpt lat="45.15958" lon="5.63154">
        <ele>1372.6</ele>
        <time>2012-08-14T08:58:19Z</time>
      </trkpt>
      <trkpt lat="45.15963" lon="5.63151">
        <ele>1370</ele>
        <time>2012-08-14T08:58:32Z</time>
      </trkpt>
      <trkpt lat="45.15967" lon="5.63141">
        <ele>1367.3</ele>
        <time>2012-08-14T08:58:46Z</time>
      </trkpt>
      <trkpt lat="45.15976" lon="5.63141">
        <ele>1363.1</ele>
        <time>2012-08-14T08:59:00Z</time>
      </trkpt>
      <trkpt lat="45.15977" lon="5.63134">
        <ele>1361.5</ele>
        <time>2012-08-14T08:59:19Z</time>
      </trkpt>
      <trkpt lat="45.15981" lon="5.63128">
        <ele>1358.4</ele>
        <time>2012-08-14T08:59:40Z</time>
      </trkpt>
      <trkpt lat="45.15989" lon="5.63117">
        <ele>1352.6</ele>
        <time>2012-08-14T09:00:18Z</time>
      </trkpt>
      <trkpt lat="45.15994" lon="5.63111">
        <ele>1348.5</ele>
        <time>2012-08-14T09:00:23Z</time>
      </trkpt>
      <trkpt lat="45.16014" lon="5.63109">
        <ele>1339.5</ele>
        <time>2012-08-14T09:01:04Z</time>
      </trkpt>
      <trkpt lat="45.1603" lon="5.63111">
        <ele>1334.6</ele>
        <time>2012-08-14T09:01:11Z</time>
      </trkpt>
      <trkpt lat="45.1605" lon="5.63109">
        <ele>1327.3</ele>
        <time>2012-08-14T09:01:20Z</time>
      </trkpt>
      <trkpt lat="45.16062" lon="5.63113">
        <ele>1324.4</ele>
        <time>2012-08-14T09:01:26Z</time>
      </trkpt>
      <trkpt lat="45.16075" lon="5.63115">
        <ele>1320.8</ele>
        <time>2012-08-14T09:01:37Z</time>
      </trkpt>
      <trkpt lat="45.16088" lon="5.63116">
        <ele>1317.4</ele>
        <time>2012-08-14T09:01:44Z</time>
      </trkpt>
      <trkpt lat="45.16093" lon="5.63116">
        <ele>1316.3</ele>
        <time>2012-08-14T09:01:47Z</time>
      </trkpt>
      <trkpt lat="45.16109" lon="5.63116">
        <ele>1313</ele>
        <time>2012-08-14T09:01:53Z</time>
      </trkpt>
      <trkpt lat="45.16125" lon="5.63114">
        <ele>1309.1</ele>
        <time>2012-08-14T09:01:59Z</time>
      </trkpt>
      <trkpt lat="45.16141" lon="5.63112">
        <ele>1305.2</ele>
        <time>2012-08-14T09:02:06Z</time>
      </trkpt>
      <trkpt lat="45.16146" lon="5.6311">
        <ele>1303</ele>
        <time>2012-08-14T09:02:08Z</time>
      </trkpt>
      <trkpt lat="45.16164" lon="5.63113">
        <ele>1300.9</ele>
        <time>2012-08-14T09:02:15Z</time>
      </trkpt>
      <trkpt lat="45.1617" lon="5.63112">
        <ele>1299.2</ele>
        <time>2012-08-14T09:02:18Z</time>
      </trkpt>
      <trkpt lat="45.16184" lon="5.63114">
        <ele>1298.4</ele>
        <time>2012-08-14T09:02:23Z</time>
      </trkpt>
      <trkpt lat="45.16216" lon="5.63095">
        <ele>1287.8</ele>
        <time>2012-08-14T09:02:33Z</time>
      </trkpt>
      <trkpt lat="45.16226" lon="5.63087">
        <ele>1284.3</ele>
        <time>2012-08-14T09:02:37Z</time>
      </trkpt>
      <trkpt lat="45.1624" lon="5.63078">
        <ele>1280.3</ele>
        <time>2012-08-14T09:02:42Z</time>
      </trkpt>
      <trkpt lat="45.16246" lon="5.63076">
        <ele>1279.1</ele>
        <time>2012-08-14T09:02:44Z</time>
      </trkpt>
      <trkpt lat="45.16256" lon="5.63073">
        <ele>1276.8</ele>
        <time>2012-08-14T09:04:58Z</time>
      </trkpt>
      <trkpt lat="45.16305" lon="5.63206">
        <ele>1304.3</ele>
        <time>2012-08-14T09:05:51Z</time>
      </trkpt>
      <trkpt lat="45.16316" lon="5.6326">
        <ele>1312.4</ele>
        <time>2012-08-14T09:06:10Z</time>
      </trkpt>
      <trkpt lat="45.16321" lon="5.63276">
        <ele>1312</ele>
        <time>2012-08-14T09:06:14Z</time>
      </trkpt>
      <trkpt lat="45.16329" lon="5.63298">
        <ele>1309.8</ele>
        <time>2012-08-14T09:06:23Z</time>
      </trkpt>
      <trkpt lat="45.16337" lon="5.63315">
        <ele>1307.3</ele>
        <time>2012-08-14T09:06:31Z</time>
      </trkpt>
      <trkpt lat="45.16343" lon="5.6333">
        <ele>1306.7</ele>
        <time>2012-08-14T09:06:34Z</time>
      </trkpt>
      <trkpt lat="45.16364" lon="5.6335">
        <ele>1297.8</ele>
        <time>2012-08-14T09:06:38Z</time>
      </trkpt>
      <trkpt lat="45.16389" lon="5.63327">
        <ele>1288.1</ele>
        <time>2012-08-14T09:06:43Z</time>
      </trkpt>
      <trkpt lat="45.16405" lon="5.63299">
        <ele>1281</ele>
        <time>2012-08-14T09:07:41Z</time>
      </trkpt>
      <trkpt lat="45.16415" lon="5.63285">
        <ele>1277</ele>
        <time>2012-08-14T09:07:46Z</time>
      </trkpt>
      <trkpt lat="45.1642" lon="5.63279">
        <ele>1275.3</ele>
        <time>2012-08-14T09:07:50Z</time>
      </trkpt>
      <trkpt lat="45.16427" lon="5.63275">
        <ele>1272.6</ele>
        <time>2012-08-14T09:07:55Z</time>
      </trkpt>
      <trkpt lat="45.16438" lon="5.63278">
        <ele>1269</ele>
        <time>2012-08-14T09:10:40Z</time>
      </trkpt>
      <trkpt lat="45.16451" lon="5.63279">
        <ele>1264.5</ele>
        <time>2012-08-14T09:10:44Z</time>
      </trkpt>
      <trkpt lat="45.16465" lon="5.63277">
        <ele>1259.5</ele>
        <time>2012-08-14T09:10:50Z</time>
      </trkpt>
      <trkpt lat="45.16475" lon="5.63277">
        <ele>1256</ele>
        <time>2012-08-14T09:10:54Z</time>
      </trkpt>
      <trkpt lat="45.16486" lon="5.63287">
        <ele>1251.3</ele>
        <time>2012-08-14T09:10:58Z</time>
      </trkpt>
      <trkpt lat="45.16496" lon="5.63288">
        <ele>1247.9</ele>
        <time>2012-08-14T09:11:07Z</time>
      </trkpt>
      <trkpt lat="45.16475" lon="5.63277">
        <ele>1256</ele>
        <time>2012-08-14T09:11:12Z</time>
      </trkpt>
      <trkpt lat="45.16483" lon="5.63234">
        <ele>1252.5</ele>
        <time>2012-08-14T09:11:20Z</time>
      </trkpt>
      <trkpt lat="45.165" lon="5.63243">
        <ele>1248.6</ele>
        <time>2012-08-14T09:11:31Z</time>
      </trkpt>
      <trkpt lat="45.16515" lon="5.63246">
        <ele>1245.7</ele>
        <time>2012-08-14T09:11:35Z</time>
      </trkpt>
      <trkpt lat="45.16525" lon="5.63251">
        <ele>1243.8</ele>
        <time>2012-08-14T09:11:38Z</time>
      </trkpt>
      <trkpt lat="45.16531" lon="5.63254">
        <ele>1242</ele>
        <time>2012-08-14T09:11:40Z</time>
      </trkpt>
      <trkpt lat="45.1655" lon="5.63265">
        <ele>1237</ele>
        <time>2012-08-14T09:11:46Z</time>
      </trkpt>
      <trkpt lat="45.1656" lon="5.63269">
        <ele>1234.6</ele>
        <time>2012-08-14T09:11:48Z</time>
      </trkpt>
      <trkpt lat="45.16565" lon="5.63271">
        <ele>1233.3</ele>
        <time>2012-08-14T09:11:49Z</time>
      </trkpt>
      <trkpt lat="45.16612" lon="5.63288">
        <ele>1226</ele>
        <time>2012-08-14T09:12:00Z</time>
      </trkpt>
      <trkpt lat="45.16621" lon="5.63291">
        <ele>1225.2</ele>
        <time>2012-08-14T09:12:02Z</time>
      </trkpt>
      <trkpt lat="45.16635" lon="5.63294">
        <ele>1223.9</ele>
        <time>2012-08-14T09:12:05Z</time>
      </trkpt>
      <trkpt lat="45.16666" lon="5.63306">
        <ele>1222.2</ele>
        <time>2012-08-14T09:12:11Z</time>
      </trkpt>
      <trkpt lat="45.16697" lon="5.63321">
        <ele>1222</ele>
        <time>2012-08-14T09:12:19Z</time>
      </trkpt>
      <trkpt lat="45.16715" lon="5.63329">
        <ele>1222.2</ele>
        <time>2012-08-14T09:12:23Z</time>
      </trkpt>
      <trkpt lat="45.16731" lon="5.63334">
        <ele>1222.2</ele>
        <time>2012-08-14T09:12:30Z</time>
      </trkpt>
      <trkpt lat="45.16756" lon="5.63345">
        <ele>1220.8</ele>
        <time>2012-08-14T09:12:36Z</time>
      </trkpt>
      <trkpt lat="45.16763" lon="5.63348">
        <ele>1220.1</ele>
        <time>2012-08-14T09:12:37Z</time>
      </trkpt>
      <trkpt lat="45.16795" lon="5.6336">
        <ele>1216.8</ele>
        <time>2012-08-14T09:12:43Z</time>
      </trkpt>
      <trkpt lat="45.16812" lon="5.63365">
        <ele>1215.1</ele>
        <time>2012-08-14T09:12:46Z</time>
      </trkpt>
      <trkpt lat="45.1684" lon="5.63365">
        <ele>1211.8</ele>
        <time>2012-08-14T09:12:53Z</time>
      </trkpt>
      <trkpt lat="45.16872" lon="5.63371">
        <ele>1208</ele>
        <time>2012-08-14T09:12:58Z</time>
      </trkpt>
      <trkpt lat="45.16881" lon="5.63372">
        <ele>1207</ele>
        <time>2012-08-14T09:12:59Z</time>
      </trkpt>
      <trkpt lat="45.16921" lon="5.63381">
        <ele>1202.7</ele>
        <time>2012-08-14T09:13:03Z</time>
      </trkpt>
      <trkpt lat="45.16948" lon="5.63382">
        <ele>1200</ele>
        <time>2012-08-14T09:13:07Z</time>
      </trkpt>
      <trkpt lat="45.16985" lon="5.63396">
        <ele>1197.2</ele>
        <time>2012-08-14T09:13:15Z</time>
      </trkpt>
      <trkpt lat="45.16995" lon="5.63401">
        <ele>1196.4</ele>
        <time>2012-08-14T09:13:18Z</time>
      </trkpt>
      <trkpt lat="45.17001" lon="5.63405">
        <ele>1196</ele>
        <time>2012-08-14T09:13:23Z</time>
      </trkpt>
      <trkpt lat="45.17025" lon="5.63416">
        <ele>1191</ele>
        <time>2012-08-14T09:13:27Z</time>
      </trkpt>
      <trkpt lat="45.1704" lon="5.63422">
        <ele>1186.8</ele>
        <time>2012-08-14T09:13:31Z</time>
      </trkpt>
      <trkpt lat="45.17057" lon="5.6343">
        <ele>1181.5</ele>
        <time>2012-08-14T09:13:35Z</time>
      </trkpt>
      <trkpt lat="45.17078" lon="5.63444">
        <ele>1175</ele>
        <time>2012-08-14T09:13:39Z</time>
      </trkpt>
      <trkpt lat="45.17088" lon="5.63447">
        <ele>1172.6</ele>
        <time>2012-08-14T09:13:41Z</time>
      </trkpt>
      <trkpt lat="45.17097" lon="5.63452">
        <ele>1170.5</ele>
        <time>2012-08-14T09:18:15Z</time>
      </trkpt>
      <trkpt lat="45.17104" lon="5.63396">
        <ele>1173</ele>
        <time>2012-08-14T09:18:29Z</time>
      </trkpt>
      <trkpt lat="45.17112" lon="5.6332">
        <ele>1170.9</ele>
        <time>2012-08-14T09:18:44Z</time>
      </trkpt>
      <trkpt lat="45.17125" lon="5.63212">
        <ele>1166.6</ele>
        <time>2012-08-14T09:19:07Z</time>
      </trkpt>
      <trkpt lat="45.17125" lon="5.63201">
        <ele>1166.3</ele>
        <time>2012-08-14T09:19:09Z</time>
      </trkpt>
      <trkpt lat="45.17127" lon="5.63183">
        <ele>1165.8</ele>
        <time>2012-08-14T09:19:12Z</time>
      </trkpt>
      <trkpt lat="45.17116" lon="5.63137">
        <ele>1164.6</ele>
        <time>2012-08-14T09:19:23Z</time>
      </trkpt>
      <trkpt lat="45.17106" lon="5.63115">
        <ele>1163.9</ele>
        <time>2012-08-14T09:19:27Z</time>
      </trkpt>
      <trkpt lat="45.17095" lon="5.63085">
        <ele>1162.8</ele>
        <time>2012-08-14T09:19:32Z</time>
      </trkpt>
      <trkpt lat="45.17081" lon="5.63067">
        <ele>1163.1</ele>
        <time>2012-08-14T09:19:36Z</time>
      </trkpt>
      <trkpt lat="45.17074" lon="5.63062">
        <ele>1163.3</ele>
        <time>2012-08-14T09:20:05Z</time>
      </trkpt>
    </trkseg>
  </trk>
</gpx>